Time,TemperatureF,DewpointF,PressureIn,WindDirection,WindDirectionDegrees,WindSpeedMPH,WindSpeedGustMPH,Humidity,HourlyPrecipIn,Conditions,Clouds,dailyrainin,SoftwareType,DateUTC
2013-02-14 00:00:00,33.4,30.0,29.72,West,275,0.0,0.0,87,0.00,,---,0.00,VWS V14.00,2013-02-14 05:00:00,
2013-02-14 00:01:00,33.4,30.0,29.72,West,275,0.0,0.0,87,0.00,,---,0.00,VWS V14.00,2013-02-14 05:01:00,
2013-02-14 00:02:00,33.3,29.9,29.72,West,275,0.0,0.0,87,0.00,,---,0.00,VWS V14.00,2013-02-14 05:02:00,
2013-02-14 00:03:00,33.3,29.9,29.72,West,275,0.0,0.0,87,0.00,,---,0.00,VWS V14.00,2013-02-14 05:03:00,
2013-02-14 00:05:00,33.2,29.8,29.73,West,275,0.0,0.0,87,0.00,,---,0.00,VWS V14.00,2013-02-14 05:05:00,
2013-02-14 00:06:00,33.2,29.8,29.73,West,275,0.0,0.0,87,0.00,,---,0.00,VWS V14.00,2013-02-14 05:06:00,
2013-02-14 00:07:00,33.2,29.8,29.73,West,275,0.0,0.0,87,0.00,,---,0.00,VWS V14.00,2013-02-14 05:07:00,
2013-02-14 00:08:00,33.2,29.8,29.73,West,275,0.0,0.0,87,0.00,,---,0.00,VWS V14.00,2013-02-14 05:08:00,
2013-02-14 00:10:00,33.2,29.8,29.73,West,275,0.0,0.0,87,0.00,,---,0.00,VWS V14.00,2013-02-14 05:10:00,
2013-02-14 00:11:00,33.1,29.7,29.73,West,275,0.0,0.0,87,0.00,,---,0.00,VWS V14.00,2013-02-14 05:11:00,
2013-02-14 00:12:00,33.1,29.7,29.73,West,275,0.0,0.0,87,0.00,,---,0.00,VWS V14.00,2013-02-14 05:12:00,
2013-02-14 00:13:00,33.1,29.7,29.72,West,275,0.0,0.0,87,0.00,,---,0.00,VWS V14.00,2013-02-14 05:13:00,
2013-02-14 00:15:00,33.0,29.6,29.72,West,275,0.0,0.0,87,0.00,,---,0.00,VWS V14.00,2013-02-14 05:15:00,
2013-02-14 00:17:00,33.0,29.6,29.73,West,275,0.0,0.0,87,0.00,,---,0.00,VWS V14.00,2013-02-14 05:17:00,
2013-02-14 00:18:00,33.0,29.6,29.72,West,275,0.0,0.0,87,0.00,,---,0.00,VWS V14.00,2013-02-14 05:18:00,
2013-02-14 00:20:00,33.0,29.6,29.72,West,275,0.0,0.0,87,0.00,,---,0.00,VWS V14.00,2013-02-14 05:20:00,
2013-02-14 00:22:00,33.1,29.7,29.72,West,275,0.0,0.0,87,0.00,,---,0.00,VWS V14.00,2013-02-14 05:22:00,
2013-02-14 00:24:00,33.0,29.6,29.72,West,275,0.0,0.0,87,0.00,,---,0.00,VWS V14.00,2013-02-14 05:24:00,
2013-02-14 00:25:00,33.0,29.6,29.72,West,275,0.0,0.0,87,0.00,,---,0.00,VWS V14.00,2013-02-14 05:25:00,
2013-02-14 00:27:00,33.1,29.7,29.72,West,275,0.0,0.0,87,0.00,,---,0.00,VWS V14.00,2013-02-14 05:27:00,
2013-02-14 00:28:00,33.1,29.7,29.72,West,275,0.0,0.0,87,0.00,,---,0.00,VWS V14.00,2013-02-14 05:28:00,
2013-02-14 00:30:00,33.1,29.7,29.72,West,275,0.0,0.0,87,0.00,,---,0.00,VWS V14.00,2013-02-14 05:30:00,
2013-02-14 00:32:00,33.1,29.7,29.72,West,275,0.0,0.0,87,0.00,,---,0.00,VWS V14.00,2013-02-14 05:32:00,
2013-02-14 00:34:00,33.1,29.7,29.73,West,275,0.0,0.0,87,0.00,,---,0.00,VWS V14.00,2013-02-14 05:34:00,
2013-02-14 00:35:00,33.1,29.7,29.73,West,275,0.0,0.0,87,0.00,,---,0.00,VWS V14.00,2013-02-14 05:35:00,
2013-02-14 00:39:00,33.1,29.7,29.73,West,275,0.0,0.0,87,0.00,,---,0.00,VWS V14.00,2013-02-14 05:39:00,
2013-02-14 00:40:00,33.0,29.6,29.73,West,275,0.0,0.0,87,0.00,,---,0.00,VWS V14.00,2013-02-14 05:40:00,
2013-02-14 00:41:00,33.0,29.6,29.73,West,275,0.0,0.0,87,0.00,,---,0.00,VWS V14.00,2013-02-14 05:41:00,
2013-02-14 00:44:00,32.9,29.5,29.73,West,275,0.0,0.0,87,0.00,,---,0.00,VWS V14.00,2013-02-14 05:44:00,
2013-02-14 00:45:00,32.9,29.5,29.73,West,275,0.0,0.0,87,0.00,,---,0.00,VWS V14.00,2013-02-14 05:45:00,
2013-02-14 00:48:00,32.9,29.5,29.73,West,275,0.0,0.0,87,0.00,,---,0.00,VWS V14.00,2013-02-14 05:48:00,
2013-02-14 00:49:00,32.9,29.5,29.73,West,275,0.0,0.0,87,0.00,,---,0.00,VWS V14.00,2013-02-14 05:49:00,
2013-02-14 00:50:00,32.9,29.5,29.73,West,275,0.0,0.0,87,0.00,,---,0.00,VWS V14.00,2013-02-14 05:50:00,
2013-02-14 00:51:00,32.9,29.5,29.73,West,275,0.0,0.0,87,0.00,,---,0.00,VWS V14.00,2013-02-14 05:51:00,
2013-02-14 00:54:00,32.9,29.5,29.73,West,275,0.0,0.0,87,0.00,,---,0.00,VWS V14.00,2013-02-14 05:54:00,
2013-02-14 00:56:00,32.9,29.7,29.73,West,275,0.0,0.0,88,0.00,,---,0.00,VWS V14.00,2013-02-14 05:56:00,
2013-02-14 00:57:00,32.8,29.6,29.73,West,275,0.0,0.0,88,0.00,,---,0.00,VWS V14.00,2013-02-14 05:57:00,
2013-02-14 00:58:00,32.8,29.6,29.73,West,275,0.0,0.0,88,0.00,,---,0.00,VWS V14.00,2013-02-14 05:58:00,
2013-02-14 01:00:00,32.7,29.5,29.73,West,275,0.0,0.0,88,0.00,,---,0.00,VWS V14.00,2013-02-14 06:00:00,
2013-02-14 01:02:00,32.7,29.5,29.72,West,275,0.0,0.0,88,0.00,,---,0.00,VWS V14.00,2013-02-14 06:02:00,
2013-02-14 01:03:00,32.6,29.5,29.72,West,275,0.0,0.0,88,0.00,,---,0.00,VWS V14.00,2013-02-14 06:03:00,
2013-02-14 01:05:00,32.6,29.5,29.72,West,275,0.0,0.0,88,0.00,,---,0.00,VWS V14.00,2013-02-14 06:05:00,
2013-02-14 01:07:00,32.6,29.5,29.73,West,275,0.0,0.0,88,0.00,,---,0.00,VWS V14.00,2013-02-14 06:07:00,
2013-02-14 01:08:00,32.6,29.5,29.73,West,275,0.0,0.0,88,0.00,,---,0.00,VWS V14.00,2013-02-14 06:08:00,
2013-02-14 01:10:00,32.5,29.4,29.73,West,275,0.0,0.0,88,0.00,,---,0.00,VWS V14.00,2013-02-14 06:10:00,
2013-02-14 01:13:00,32.5,29.4,29.72,West,275,0.0,0.0,88,0.00,,---,0.00,VWS V14.00,2013-02-14 06:13:00,
2013-02-14 01:14:00,32.5,29.4,29.72,West,275,0.0,0.0,88,0.00,,---,0.00,VWS V14.00,2013-02-14 06:14:00,
2013-02-14 01:15:00,32.4,29.2,29.73,West,275,0.0,0.0,88,0.00,,---,0.00,VWS V14.00,2013-02-14 06:15:00,
2013-02-14 01:18:00,32.4,29.2,29.73,West,275,0.0,0.0,88,0.00,,---,0.00,VWS V14.00,2013-02-14 06:18:00,
2013-02-14 01:19:00,32.4,29.2,29.73,West,275,0.0,0.0,88,0.00,,---,0.00,VWS V14.00,2013-02-14 06:19:00,
2013-02-14 01:20:00,32.4,29.2,29.72,West,275,0.0,0.0,88,0.00,,---,0.00,VWS V14.00,2013-02-14 06:20:00,
2013-02-14 01:21:00,32.4,29.2,29.72,West,275,0.0,0.0,88,0.00,,---,0.00,VWS V14.00,2013-02-14 06:21:00,
2013-02-14 01:24:00,32.3,29.1,29.73,West,275,0.0,0.0,88,0.00,,---,0.00,VWS V14.00,2013-02-14 06:24:00,
2013-02-14 01:26:00,32.3,29.1,29.73,West,275,0.0,0.0,88,0.00,,---,0.00,VWS V14.00,2013-02-14 06:26:00,
2013-02-14 01:28:00,32.3,29.1,29.72,West,275,0.0,0.0,88,0.00,,---,0.00,VWS V14.00,2013-02-14 06:28:00,
2013-02-14 01:29:00,32.3,29.1,29.72,West,275,0.0,0.0,88,0.00,,---,0.00,VWS V14.00,2013-02-14 06:29:00,
2013-02-14 01:31:00,32.3,29.1,29.73,West,275,0.0,0.0,88,0.00,,---,0.00,VWS V14.00,2013-02-14 06:31:00,
2013-02-14 01:32:00,32.3,29.1,29.73,West,275,0.0,0.0,88,0.00,,---,0.00,VWS V14.00,2013-02-14 06:32:00,
2013-02-14 01:33:00,32.3,29.1,29.73,West,275,0.0,0.0,88,0.00,,---,0.00,VWS V14.00,2013-02-14 06:33:00,
2013-02-14 01:37:00,32.2,29.0,29.73,West,275,0.0,0.0,88,0.00,,---,0.00,VWS V14.00,2013-02-14 06:37:00,
2013-02-14 01:39:00,32.2,29.0,29.73,West,275,0.0,0.0,88,0.00,,---,0.00,VWS V14.00,2013-02-14 06:39:00,
2013-02-14 01:43:00,32.2,29.0,29.73,West,275,0.0,0.0,88,0.00,,---,0.00,VWS V14.00,2013-02-14 06:43:00,
2013-02-14 01:44:00,32.2,29.0,29.72,West,275,0.0,0.0,88,0.00,,---,0.00,VWS V14.00,2013-02-14 06:44:00,
2013-02-14 01:46:00,32.1,29.0,29.72,West,275,0.0,0.0,88,0.00,,---,0.00,VWS V14.00,2013-02-14 06:46:00,
2013-02-14 01:48:00,32.0,28.9,29.72,West,275,0.0,0.0,88,0.00,,---,0.00,VWS V14.00,2013-02-14 06:48:00,
2013-02-14 01:49:00,32.0,28.9,29.73,West,275,0.0,0.0,88,0.00,,---,0.00,VWS V14.00,2013-02-14 06:49:00,
2013-02-14 01:51:00,31.9,28.8,29.72,West,275,0.0,0.0,88,0.00,,---,0.00,VWS V14.00,2013-02-14 06:51:00,
2013-02-14 01:53:00,31.8,28.9,29.72,West,275,0.0,0.0,89,0.00,,---,0.00,VWS V14.00,2013-02-14 06:53:00,
2013-02-14 01:54:00,31.8,28.9,29.72,West,275,0.0,0.0,89,0.00,,---,0.00,VWS V14.00,2013-02-14 06:54:00,
2013-02-14 01:55:00,31.8,28.9,29.72,West,275,0.0,0.0,89,0.00,,---,0.00,VWS V14.00,2013-02-14 06:55:00,
2013-02-14 01:56:00,31.8,28.9,29.72,West,275,0.0,0.0,89,0.00,,---,0.00,VWS V14.00,2013-02-14 06:56:00,
2013-02-14 01:58:00,31.9,29.0,29.72,West,275,0.0,0.0,89,0.00,,---,0.00,VWS V14.00,2013-02-14 06:58:00,
2013-02-14 02:00:00,32.0,29.1,29.72,West,275,0.0,0.0,89,0.00,,---,0.00,VWS V14.00,2013-02-14 07:00:00,
2013-02-14 02:01:00,32.0,29.1,29.72,West,275,0.0,0.0,89,0.00,,---,0.00,VWS V14.00,2013-02-14 07:01:00,
2013-02-14 02:03:00,32.0,29.1,29.72,West,275,0.0,0.0,89,0.00,,---,0.00,VWS V14.00,2013-02-14 07:03:00,
2013-02-14 02:05:00,32.0,29.1,29.72,West,275,0.0,0.0,89,0.00,,---,0.00,VWS V14.00,2013-02-14 07:05:00,
2013-02-14 02:08:00,31.9,29.0,29.72,West,275,0.0,0.0,89,0.00,,---,0.00,VWS V14.00,2013-02-14 07:08:00,
2013-02-14 02:09:00,31.9,29.0,29.72,West,275,0.0,0.0,89,0.00,,---,0.00,VWS V14.00,2013-02-14 07:09:00,
2013-02-14 02:11:00,31.9,29.0,29.72,West,275,0.0,0.0,89,0.00,,---,0.00,VWS V14.00,2013-02-14 07:11:00,
2013-02-14 02:13:00,31.8,28.9,29.72,West,275,0.0,0.0,89,0.00,,---,0.00,VWS V14.00,2013-02-14 07:13:00,
2013-02-14 02:15:00,31.9,29.0,29.72,West,275,0.0,0.0,89,0.00,,---,0.00,VWS V14.00,2013-02-14 07:15:00,
2013-02-14 02:16:00,32.0,29.1,29.72,West,275,0.0,0.0,89,0.00,,---,0.00,VWS V14.00,2013-02-14 07:16:00,
2013-02-14 02:18:00,32.1,29.2,29.72,West,275,0.0,0.0,89,0.00,,---,0.00,VWS V14.00,2013-02-14 07:18:00,
2013-02-14 02:21:00,32.2,29.3,29.72,West,275,0.0,0.0,89,0.00,,---,0.00,VWS V14.00,2013-02-14 07:21:00,
2013-02-14 02:22:00,32.2,29.3,29.72,West,275,0.0,0.0,89,0.00,,---,0.00,VWS V14.00,2013-02-14 07:22:00,
2013-02-14 02:23:00,32.3,29.4,29.72,West,275,0.0,0.0,89,0.00,,---,0.00,VWS V14.00,2013-02-14 07:23:00,
2013-02-14 02:24:00,32.3,29.4,29.72,West,275,0.0,0.0,89,0.00,,---,0.00,VWS V14.00,2013-02-14 07:24:00,
2013-02-14 02:26:00,32.3,29.7,29.72,West,275,0.0,0.0,90,0.00,,---,0.00,VWS V14.00,2013-02-14 07:26:00,
2013-02-14 02:27:00,32.4,29.8,29.72,West,275,0.0,0.0,90,0.00,,---,0.00,VWS V14.00,2013-02-14 07:27:00,
2013-02-14 02:29:00,32.4,29.8,29.72,West,275,0.0,0.0,90,0.00,,---,0.00,VWS V14.00,2013-02-14 07:29:00,
2013-02-14 02:30:00,32.4,29.8,29.72,West,275,0.0,0.0,90,0.00,,---,0.00,VWS V14.00,2013-02-14 07:30:00,
2013-02-14 02:33:00,32.4,29.5,29.72,West,275,0.0,0.0,89,0.00,,---,0.00,VWS V14.00,2013-02-14 07:33:00,
2013-02-14 02:34:00,32.4,29.8,29.72,West,275,0.0,0.0,90,0.00,,---,0.00,VWS V14.00,2013-02-14 07:34:00,
2013-02-14 02:35:00,32.4,29.8,29.72,West,275,0.0,0.0,90,0.00,,---,0.00,VWS V14.00,2013-02-14 07:35:00,
2013-02-14 02:39:00,32.6,30.0,29.72,West,275,0.0,0.0,90,0.00,,---,0.00,VWS V14.00,2013-02-14 07:39:00,
2013-02-14 02:40:00,32.6,30.0,29.72,West,275,0.0,0.0,90,0.00,,---,0.00,VWS V14.00,2013-02-14 07:40:00,
2013-02-14 02:41:00,32.6,30.0,29.72,West,275,0.0,0.0,90,0.00,,---,0.00,VWS V14.00,2013-02-14 07:41:00,
2013-02-14 02:44:00,32.8,30.2,29.72,WSW,253,0.0,0.0,90,0.00,,---,0.00,VWS V14.00,2013-02-14 07:44:00,
2013-02-14 02:45:00,32.9,30.3,29.72,WSW,253,0.0,0.0,90,0.00,,---,0.00,VWS V14.00,2013-02-14 07:45:00,
2013-02-14 02:46:00,32.9,30.3,29.72,WSW,253,0.0,0.0,90,0.00,,---,0.00,VWS V14.00,2013-02-14 07:46:00,
2013-02-14 02:47:00,32.9,30.3,29.72,WSW,240,0.0,0.0,90,0.00,,---,0.00,VWS V14.00,2013-02-14 07:47:00,
2013-02-14 02:50:00,33.0,30.4,29.72,WSW,238,0.0,1.0,90,0.00,,---,0.00,VWS V14.00,2013-02-14 07:50:00,
2013-02-14 02:51:00,33.0,30.4,29.72,WSW,237,0.0,1.0,90,0.00,,---,0.00,VWS V14.00,2013-02-14 07:51:00,
2013-02-14 02:52:00,33.0,30.4,29.72,WSW,238,0.0,1.0,90,0.00,,---,0.00,VWS V14.00,2013-02-14 07:52:00,
2013-02-14 02:56:00,33.1,30.5,29.73,SW,236,0.0,1.0,90,0.00,,---,0.00,VWS V14.00,2013-02-14 07:56:00,
2013-02-14 02:57:00,33.1,30.5,29.73,SW,236,0.0,1.0,90,0.00,,---,0.00,VWS V14.00,2013-02-14 07:57:00,
2013-02-14 02:58:00,33.1,30.5,29.72,SW,227,1.0,1.0,90,0.00,,---,0.00,VWS V14.00,2013-02-14 07:58:00,
2013-02-14 03:01:00,33.3,30.7,29.72,SSW,213,0.0,1.0,90,0.00,,---,0.00,VWS V14.00,2013-02-14 08:01:00,
2013-02-14 03:03:00,33.4,30.8,29.72,SSW,202,0.0,1.0,90,0.00,,---,0.00,VWS V14.00,2013-02-14 08:03:00,
2013-02-14 03:04:00,33.4,30.8,29.72,SSW,202,0.0,1.0,90,0.00,,---,0.00,VWS V14.00,2013-02-14 08:04:00,
2013-02-14 03:06:00,33.4,30.8,29.72,SSW,202,0.0,1.0,90,0.00,,---,0.00,VWS V14.00,2013-02-14 08:06:00,
2013-02-14 03:07:00,33.4,30.8,29.72,SSW,200,0.0,1.0,90,0.00,,---,0.00,VWS V14.00,2013-02-14 08:07:00,
2013-02-14 03:09:00,33.5,30.9,29.72,SSW,200,0.0,1.0,90,0.00,,---,0.00,VWS V14.00,2013-02-14 08:09:00,
2013-02-14 03:10:00,33.4,30.8,29.72,SSW,198,0.0,1.0,90,0.00,,---,0.00,VWS V14.00,2013-02-14 08:10:00,
2013-02-14 03:11:00,33.4,30.8,29.72,SSW,197,0.0,1.0,90,0.00,,---,0.00,VWS V14.00,2013-02-14 08:11:00,
2013-02-14 03:14:00,33.4,30.8,29.72,SSW,195,0.0,1.0,90,0.00,,---,0.00,VWS V14.00,2013-02-14 08:14:00,
2013-02-14 03:15:00,33.4,30.8,29.72,SSW,195,0.0,1.0,90,0.00,,---,0.00,VWS V14.00,2013-02-14 08:15:00,
2013-02-14 03:16:00,33.4,30.8,29.72,SSW,196,0.0,1.0,90,0.00,,---,0.00,VWS V14.00,2013-02-14 08:16:00,
2013-02-14 03:17:00,33.4,30.8,29.72,SSW,196,0.0,1.0,90,0.00,,---,0.00,VWS V14.00,2013-02-14 08:17:00,
2013-02-14 03:19:00,33.4,30.8,29.72,SSW,196,0.0,1.0,90,0.00,,---,0.00,VWS V14.00,2013-02-14 08:19:00,
2013-02-14 03:22:00,33.4,30.8,29.72,SSW,196,0.0,1.0,90,0.00,,---,0.00,VWS V14.00,2013-02-14 08:22:00,
2013-02-14 03:23:00,33.5,30.9,29.72,SSW,195,0.0,1.0,90,0.00,,---,0.00,VWS V14.00,2013-02-14 08:23:00,
2013-02-14 03:25:00,33.5,30.9,29.72,SSW,195,0.0,1.0,90,0.00,,---,0.00,VWS V14.00,2013-02-14 08:25:00,
2013-02-14 03:28:00,33.5,30.9,29.71,SSW,195,0.0,1.0,90,0.00,,---,0.00,VWS V14.00,2013-02-14 08:28:00,
2013-02-14 03:31:00,33.5,30.9,29.72,SSW,194,0.0,1.0,90,0.00,,---,0.00,VWS V14.00,2013-02-14 08:31:00,
2013-02-14 03:34:00,33.6,31.3,29.71,SSW,193,0.0,1.0,91,0.00,,---,0.00,VWS V14.00,2013-02-14 08:34:00,
2013-02-14 03:36:00,33.6,31.0,29.72,SSW,192,0.0,1.0,90,0.00,,---,0.00,VWS V14.00,2013-02-14 08:36:00,
2013-02-14 03:37:00,33.5,30.9,29.71,SSW,192,0.0,1.0,90,0.00,,---,0.00,VWS V14.00,2013-02-14 08:37:00,
2013-02-14 03:40:00,33.5,30.9,29.72,SSW,192,0.0,1.0,90,0.00,,---,0.00,VWS V14.00,2013-02-14 08:40:00,
2013-02-14 03:41:00,33.5,30.9,29.72,SSW,192,0.0,1.0,90,0.00,,---,0.00,VWS V14.00,2013-02-14 08:41:00,
2013-02-14 03:42:00,33.5,30.9,29.71,SSW,192,0.0,1.0,90,0.00,,---,0.00,VWS V14.00,2013-02-14 08:42:00,
2013-02-14 03:45:00,33.5,30.9,29.71,South,191,0.0,1.0,90,0.00,,---,0.00,VWS V14.00,2013-02-14 08:45:00,
2013-02-14 03:47:00,33.5,30.9,29.71,South,191,0.0,1.0,90,0.00,,---,0.00,VWS V14.00,2013-02-14 08:47:00,
2013-02-14 03:49:00,33.5,31.2,29.71,South,191,0.0,1.0,91,0.00,,---,0.00,VWS V14.00,2013-02-14 08:49:00,
2013-02-14 03:51:00,33.5,31.2,29.71,South,190,0.0,1.0,91,0.00,,---,0.00,VWS V14.00,2013-02-14 08:51:00,
2013-02-14 03:53:00,33.5,31.2,29.71,South,190,0.0,1.0,91,0.00,,---,0.00,VWS V14.00,2013-02-14 08:53:00,
2013-02-14 03:55:00,33.5,31.2,29.71,South,190,0.0,1.0,91,0.00,,---,0.00,VWS V14.00,2013-02-14 08:55:00,
2013-02-14 03:56:00,33.5,31.2,29.71,South,190,0.0,1.0,91,0.00,,---,0.00,VWS V14.00,2013-02-14 08:56:00,
2013-02-14 04:00:00,33.5,31.2,29.71,South,189,0.0,1.0,91,0.00,,---,0.00,VWS V14.00,2013-02-14 09:00:00,
2013-02-14 04:01:00,33.5,31.2,29.71,South,188,0.0,1.0,91,0.00,,---,0.00,VWS V14.00,2013-02-14 09:01:00,
2013-02-14 04:02:00,33.5,31.2,29.71,South,189,0.0,1.0,91,0.00,,---,0.00,VWS V14.00,2013-02-14 09:02:00,
2013-02-14 04:05:00,33.5,31.2,29.71,South,188,0.0,1.0,91,0.00,,---,0.00,VWS V14.00,2013-02-14 09:05:00,
2013-02-14 04:07:00,33.5,31.2,29.71,South,188,1.0,1.0,91,0.00,,---,0.00,VWS V14.00,2013-02-14 09:07:00,
2013-02-14 04:08:00,33.5,31.2,29.71,South,188,0.0,1.0,91,0.00,,---,0.00,VWS V14.00,2013-02-14 09:08:00,
2013-02-14 04:09:00,33.5,31.2,29.70,South,188,0.0,1.0,91,0.00,,---,0.00,VWS V14.00,2013-02-14 09:09:00,
2013-02-14 04:10:00,33.5,31.2,29.70,South,188,1.0,1.0,91,0.00,,---,0.00,VWS V14.00,2013-02-14 09:10:00,
2013-02-14 04:14:00,33.5,31.2,29.71,South,186,1.0,1.0,91,0.00,,---,0.00,VWS V14.00,2013-02-14 09:14:00,
2013-02-14 04:15:00,33.5,31.2,29.71,South,186,0.0,1.0,91,0.00,,---,0.00,VWS V14.00,2013-02-14 09:15:00,
2013-02-14 04:16:00,33.6,31.3,29.71,South,186,1.0,1.0,91,0.00,,---,0.00,VWS V14.00,2013-02-14 09:16:00,
2013-02-14 04:21:00,33.6,31.3,29.70,South,186,0.0,1.0,91,0.00,,---,0.00,VWS V14.00,2013-02-14 09:21:00,
2013-02-14 04:22:00,33.6,31.3,29.70,South,186,0.0,1.0,91,0.00,,---,0.00,VWS V14.00,2013-02-14 09:22:00,
2013-02-14 04:24:00,33.5,31.2,29.70,South,186,0.0,1.0,91,0.00,,---,0.00,VWS V14.00,2013-02-14 09:24:00,
2013-02-14 04:26:00,33.5,31.2,29.71,South,184,0.0,1.0,91,0.00,,---,0.00,VWS V14.00,2013-02-14 09:26:00,
2013-02-14 04:29:00,33.4,31.1,29.71,South,185,0.0,1.0,91,0.00,,---,0.00,VWS V14.00,2013-02-14 09:29:00,
2013-02-14 04:30:00,33.4,31.1,29.70,South,185,0.0,1.0,91,0.00,,---,0.00,VWS V14.00,2013-02-14 09:30:00,
2013-02-14 04:31:00,33.4,31.1,29.70,South,184,0.0,1.0,91,0.00,,---,0.00,VWS V14.00,2013-02-14 09:31:00,
2013-02-14 04:33:00,33.4,31.1,29.70,South,185,1.0,1.0,91,0.00,,---,0.00,VWS V14.00,2013-02-14 09:33:00,
2013-02-14 04:34:00,33.4,31.1,29.70,South,185,0.0,1.0,91,0.00,,---,0.00,VWS V14.00,2013-02-14 09:34:00,
2013-02-14 04:36:00,33.4,31.1,29.70,South,185,0.0,1.0,91,0.00,,---,0.00,VWS V14.00,2013-02-14 09:36:00,
2013-02-14 04:38:00,33.4,31.1,29.70,South,185,0.0,1.0,91,0.00,,---,0.00,VWS V14.00,2013-02-14 09:38:00,
2013-02-14 04:39:00,33.4,31.1,29.70,South,185,0.0,1.0,91,0.00,,---,0.00,VWS V14.00,2013-02-14 09:39:00,
2013-02-14 04:40:00,33.5,31.2,29.70,South,185,0.0,1.0,91,0.00,,---,0.00,VWS V14.00,2013-02-14 09:40:00,
2013-02-14 04:41:00,33.5,31.2,29.70,South,185,0.0,1.0,91,0.00,,---,0.00,VWS V14.00,2013-02-14 09:41:00,
2013-02-14 04:43:00,33.6,31.3,29.70,South,184,0.0,1.0,91,0.00,,---,0.00,VWS V14.00,2013-02-14 09:43:00,
2013-02-14 04:45:00,33.6,31.3,29.70,South,185,0.0,1.0,91,0.00,,---,0.00,VWS V14.00,2013-02-14 09:45:00,
2013-02-14 04:46:00,33.6,31.3,29.70,South,185,0.0,1.0,91,0.00,,---,0.00,VWS V14.00,2013-02-14 09:46:00,
2013-02-14 04:49:00,33.6,31.3,29.70,South,185,0.0,1.0,91,0.00,,---,0.00,VWS V14.00,2013-02-14 09:49:00,
2013-02-14 04:51:00,33.6,31.3,29.70,South,185,0.0,1.0,91,0.00,,---,0.00,VWS V14.00,2013-02-14 09:51:00,
2013-02-14 04:52:00,33.6,31.3,29.70,South,184,0.0,1.0,91,0.00,,---,0.00,VWS V14.00,2013-02-14 09:52:00,
2013-02-14 04:56:00,33.5,31.2,29.70,South,185,0.0,1.0,91,0.00,,---,0.00,VWS V14.00,2013-02-14 09:56:00,
2013-02-14 04:57:00,33.6,31.3,29.70,South,184,0.0,1.0,91,0.00,,---,0.00,VWS V14.00,2013-02-14 09:57:00,
2013-02-14 04:58:00,33.6,31.3,29.70,South,185,0.0,1.0,91,0.00,,---,0.00,VWS V14.00,2013-02-14 09:58:00,
2013-02-14 05:03:00,33.7,31.4,29.70,South,184,1.0,1.0,91,0.00,,---,0.00,VWS V14.00,2013-02-14 10:03:00,
2013-02-14 05:05:00,33.6,31.3,29.70,South,184,0.0,1.0,91,0.00,,---,0.00,VWS V14.00,2013-02-14 10:05:00,
2013-02-14 05:06:00,33.6,31.3,29.70,South,184,0.0,1.0,91,0.00,,---,0.00,VWS V14.00,2013-02-14 10:06:00,
2013-02-14 05:08:00,33.6,31.3,29.70,South,184,0.0,1.0,91,0.00,,---,0.00,VWS V14.00,2013-02-14 10:08:00,
2013-02-14 05:10:00,33.6,31.3,29.70,South,184,0.0,1.0,91,0.00,,---,0.00,VWS V14.00,2013-02-14 10:10:00,
2013-02-14 05:11:00,33.6,31.3,29.70,South,184,0.0,1.0,91,0.00,,---,0.00,VWS V14.00,2013-02-14 10:11:00,
2013-02-14 05:12:00,33.6,31.3,29.70,South,184,0.0,1.0,91,0.00,,---,0.00,VWS V14.00,2013-02-14 10:12:00,
2013-02-14 05:14:00,33.6,31.3,29.70,South,186,0.0,1.0,91,0.00,,---,0.00,VWS V14.00,2013-02-14 10:14:00,
2013-02-14 05:17:00,33.7,31.4,29.70,South,184,0.0,1.0,91,0.00,,---,0.00,VWS V14.00,2013-02-14 10:17:00,
2013-02-14 05:19:00,33.8,31.5,29.70,South,184,0.0,1.0,91,0.00,,---,0.00,VWS V14.00,2013-02-14 10:19:00,
2013-02-14 05:22:00,33.9,31.6,29.70,South,184,0.0,1.0,91,0.00,,---,0.00,VWS V14.00,2013-02-14 10:22:00,
2013-02-14 05:24:00,33.9,31.6,29.70,South,185,0.0,1.0,91,0.00,,---,0.00,VWS V14.00,2013-02-14 10:24:00,
2013-02-14 05:26:00,33.9,31.6,29.70,South,185,0.0,1.0,91,0.00,,---,0.00,VWS V14.00,2013-02-14 10:26:00,
2013-02-14 05:28:00,34.0,31.6,29.70,South,185,0.0,1.0,91,0.00,,---,0.00,VWS V14.00,2013-02-14 10:28:00,
2013-02-14 05:29:00,34.0,31.6,29.70,South,186,0.0,1.0,91,0.00,,---,0.00,VWS V14.00,2013-02-14 10:29:00,
2013-02-14 05:33:00,34.1,31.8,29.70,South,185,0.0,1.0,91,0.00,,---,0.00,VWS V14.00,2013-02-14 10:33:00,
2013-02-14 05:36:00,34.1,31.8,29.70,South,185,0.0,1.0,91,0.00,,---,0.00,VWS V14.00,2013-02-14 10:36:00,
2013-02-14 05:37:00,34.1,31.8,29.70,South,185,0.0,1.0,91,0.00,,---,0.00,VWS V14.00,2013-02-14 10:37:00,
2013-02-14 05:39:00,34.1,31.8,29.70,South,184,0.0,1.0,91,0.00,,---,0.00,VWS V14.00,2013-02-14 10:39:00,
2013-02-14 05:41:00,34.1,31.8,29.70,South,184,0.0,1.0,91,0.00,,---,0.00,VWS V14.00,2013-02-14 10:41:00,
2013-02-14 05:44:00,34.2,31.9,29.70,South,175,1.0,1.0,91,0.00,,---,0.00,VWS V14.00,2013-02-14 10:44:00,
2013-02-14 05:45:00,34.2,31.9,29.70,South,173,0.0,1.0,91,0.00,,---,0.00,VWS V14.00,2013-02-14 10:45:00,
2013-02-14 05:46:00,34.2,31.9,29.70,South,173,0.0,1.0,91,0.00,,---,0.00,VWS V14.00,2013-02-14 10:46:00,
2013-02-14 05:48:00,34.1,31.8,29.70,South,175,0.0,1.0,91,0.00,,---,0.00,VWS V14.00,2013-02-14 10:48:00,
2013-02-14 05:50:00,34.1,31.8,29.70,South,180,0.0,2.0,91,0.00,,---,0.00,VWS V14.00,2013-02-14 10:50:00,
2013-02-14 05:51:00,34.1,31.8,29.70,South,179,0.0,2.0,91,0.00,,---,0.00,VWS V14.00,2013-02-14 10:51:00,
2013-02-14 05:53:00,34.1,31.8,29.69,South,179,0.0,2.0,91,0.00,,---,0.00,VWS V14.00,2013-02-14 10:53:00,
2013-02-14 05:56:00,34.1,31.8,29.69,South,180,0.0,2.0,91,0.00,,---,0.00,VWS V14.00,2013-02-14 10:56:00,
2013-02-14 05:57:00,34.1,31.8,29.69,South,179,0.0,2.0,91,0.00,,---,0.00,VWS V14.00,2013-02-14 10:57:00,
2013-02-14 06:01:00,34.1,31.8,29.69,South,179,0.0,1.0,91,0.00,,---,0.00,VWS V14.00,2013-02-14 11:01:00,
2013-02-14 06:02:00,34.1,31.8,29.69,South,179,0.0,1.0,91,0.00,,---,0.00,VWS V14.00,2013-02-14 11:02:00,
2013-02-14 06:03:00,34.1,32.0,29.69,South,179,0.0,1.0,92,0.00,,---,0.00,VWS V14.00,2013-02-14 11:03:00,
2013-02-14 06:07:00,34.2,32.1,29.69,South,178,0.0,1.0,92,0.00,,---,0.00,VWS V14.00,2013-02-14 11:07:00,
2013-02-14 06:08:00,34.2,32.1,29.69,South,178,0.0,1.0,92,0.00,,---,0.00,VWS V14.00,2013-02-14 11:08:00,
2013-02-14 06:09:00,34.2,32.1,29.69,South,178,0.0,1.0,92,0.00,,---,0.00,VWS V14.00,2013-02-14 11:09:00,
2013-02-14 06:11:00,34.2,32.1,29.69,South,178,0.0,1.0,92,0.00,,---,0.00,VWS V14.00,2013-02-14 11:11:00,
2013-02-14 06:14:00,34.2,32.1,29.69,South,178,0.0,1.0,92,0.00,,---,0.00,VWS V14.00,2013-02-14 11:14:00,
2013-02-14 06:15:00,34.2,31.9,29.69,South,178,0.0,1.0,91,0.00,,---,0.00,VWS V14.00,2013-02-14 11:15:00,
2013-02-14 06:16:00,34.1,31.8,29.69,South,178,0.0,1.0,91,0.00,,---,0.00,VWS V14.00,2013-02-14 11:16:00,
2013-02-14 06:19:00,34.2,32.1,29.69,South,178,0.0,1.0,92,0.00,,---,0.00,VWS V14.00,2013-02-14 11:19:00,
2013-02-14 06:23:00,34.2,32.1,29.69,South,178,0.0,1.0,92,0.00,,---,0.00,VWS V14.00,2013-02-14 11:23:00,
2013-02-14 06:25:00,34.2,32.1,29.69,South,179,0.0,1.0,92,0.00,,---,0.00,VWS V14.00,2013-02-14 11:25:00,
2013-02-14 06:27:00,34.3,32.2,29.69,South,180,0.0,1.0,92,0.00,,---,0.00,VWS V14.00,2013-02-14 11:27:00,
2013-02-14 06:28:00,34.3,32.2,29.69,South,179,0.0,1.0,92,0.00,,---,0.00,VWS V14.00,2013-02-14 11:28:00,
2013-02-14 06:29:00,34.3,32.2,29.69,South,180,0.0,1.0,92,0.00,,---,0.00,VWS V14.00,2013-02-14 11:29:00,
2013-02-14 06:30:00,34.3,32.2,29.69,South,180,0.0,1.0,92,0.00,,---,0.00,VWS V14.00,2013-02-14 11:30:00,
2013-02-14 06:32:00,34.3,32.2,29.69,South,179,0.0,1.0,92,0.00,,---,0.00,VWS V14.00,2013-02-14 11:32:00,
2013-02-14 06:34:00,34.3,32.2,29.69,South,180,0.0,1.0,92,0.00,,---,0.00,VWS V14.00,2013-02-14 11:34:00,
2013-02-14 06:37:00,34.3,32.2,29.69,South,183,0.0,2.0,92,0.00,,---,0.00,VWS V14.00,2013-02-14 11:37:00,
2013-02-14 06:38:00,34.3,32.2,29.69,South,183,0.0,2.0,92,0.00,,---,0.00,VWS V14.00,2013-02-14 11:38:00,
2013-02-14 06:39:00,34.3,32.2,29.69,South,183,1.0,2.0,92,0.00,,---,0.00,VWS V14.00,2013-02-14 11:39:00,
2013-02-14 06:42:00,34.4,32.3,29.69,South,182,0.0,2.0,92,0.00,,---,0.00,VWS V14.00,2013-02-14 11:42:00,
2013-02-14 06:43:00,34.4,32.3,29.69,South,182,0.0,2.0,92,0.00,,---,0.00,VWS V14.00,2013-02-14 11:43:00,
2013-02-14 06:45:00,34.4,32.3,29.69,South,182,0.0,2.0,92,0.00,,---,0.00,VWS V14.00,2013-02-14 11:45:00,
2013-02-14 06:48:00,34.4,32.3,29.69,South,175,0.0,2.0,92,0.00,,---,0.00,VWS V14.00,2013-02-14 11:48:00,
2013-02-14 06:49:00,34.4,32.3,29.69,South,173,0.0,2.0,92,0.00,,---,0.00,VWS V14.00,2013-02-14 11:49:00,
2013-02-14 06:50:00,34.4,32.3,29.68,South,175,0.0,2.0,92,0.00,,---,0.00,VWS V14.00,2013-02-14 11:50:00,
2013-02-14 06:52:00,34.4,32.3,29.69,South,176,0.0,2.0,92,0.00,,---,0.00,VWS V14.00,2013-02-14 11:52:00,
2013-02-14 06:53:00,34.4,32.3,29.68,South,176,0.0,2.0,92,0.00,,---,0.00,VWS V14.00,2013-02-14 11:53:00,
2013-02-14 06:55:00,34.4,32.3,29.69,South,175,1.0,2.0,92,0.00,,---,0.00,VWS V14.00,2013-02-14 11:55:00,
2013-02-14 06:57:00,34.5,32.4,29.68,South,175,0.0,2.0,92,0.00,,---,0.00,VWS V14.00,2013-02-14 11:57:00,
2013-02-14 06:59:00,34.6,32.5,29.69,SSW,204,0.0,1.0,92,0.00,,---,0.00,VWS V14.00,2013-02-14 11:59:00,
2013-02-14 07:02:00,34.7,32.6,29.68,South,184,0.0,1.0,92,0.00,,---,0.00,VWS V14.00,2013-02-14 12:02:00,
2013-02-14 07:03:00,34.7,32.6,29.68,South,180,1.0,1.0,92,0.00,,---,0.00,VWS V14.00,2013-02-14 12:03:00,
2013-02-14 07:04:00,34.7,32.6,29.68,South,181,0.0,1.0,92,0.00,,---,0.00,VWS V14.00,2013-02-14 12:04:00,
2013-02-14 07:08:00,34.8,32.7,29.68,SSE,168,0.0,1.0,92,0.00,,---,0.00,VWS V14.00,2013-02-14 12:08:00,
2013-02-14 07:09:00,34.8,32.5,29.68,South,180,0.0,1.0,91,0.00,,---,0.00,VWS V14.00,2013-02-14 12:09:00,
2013-02-14 07:10:00,34.8,32.5,29.68,South,176,1.0,1.0,91,0.00,,---,0.00,VWS V14.00,2013-02-14 12:10:00,
2013-02-14 07:13:00,34.8,32.5,29.68,South,178,0.0,1.0,91,0.00,,---,0.00,VWS V14.00,2013-02-14 12:13:00,
2013-02-14 07:15:00,34.8,32.7,29.68,South,177,1.0,2.0,92,0.00,,---,0.00,VWS V14.00,2013-02-14 12:15:00,
2013-02-14 07:16:00,34.8,32.7,29.68,South,177,0.0,2.0,92,0.00,,---,0.00,VWS V14.00,2013-02-14 12:16:00,
2013-02-14 07:19:00,34.8,32.7,29.68,South,174,0.0,2.0,92,0.00,,---,0.00,VWS V14.00,2013-02-14 12:19:00,
2013-02-14 07:20:00,34.8,32.5,29.68,South,174,0.0,2.0,91,0.00,,---,0.00,VWS V14.00,2013-02-14 12:20:00,
2013-02-14 07:21:00,34.9,32.5,29.68,South,175,0.0,2.0,91,0.00,,---,0.00,VWS V14.00,2013-02-14 12:21:00,
2013-02-14 07:22:00,34.9,32.5,29.68,South,175,0.0,2.0,91,0.00,,---,0.00,VWS V14.00,2013-02-14 12:22:00,
2013-02-14 07:25:00,35.0,32.9,29.68,South,173,0.0,2.0,92,0.00,,---,0.00,VWS V14.00,2013-02-14 12:25:00,
2013-02-14 07:26:00,35.0,32.9,29.67,South,173,0.0,2.0,92,0.00,,---,0.00,VWS V14.00,2013-02-14 12:26:00,
2013-02-14 07:27:00,35.0,32.9,29.68,South,175,0.0,2.0,92,0.00,,---,0.00,VWS V14.00,2013-02-14 12:27:00,
2013-02-14 07:31:00,35.1,33.0,29.67,South,175,0.0,1.0,92,0.00,,---,0.00,VWS V14.00,2013-02-14 12:31:00,
2013-02-14 07:32:00,35.1,33.0,29.67,South,175,0.0,1.0,92,0.00,,---,0.00,VWS V14.00,2013-02-14 12:32:00,
2013-02-14 07:34:00,35.1,32.7,29.67,South,175,0.0,1.0,91,0.00,,---,0.00,VWS V14.00,2013-02-14 12:34:00,
2013-02-14 07:37:00,35.1,32.7,29.67,South,175,0.0,1.0,91,0.00,,---,0.00,VWS V14.00,2013-02-14 12:37:00,
2013-02-14 07:38:00,35.2,32.8,29.67,South,175,0.0,1.0,91,0.00,,---,0.00,VWS V14.00,2013-02-14 12:38:00,
2013-02-14 07:39:00,35.2,32.8,29.67,South,175,0.0,1.0,91,0.00,,---,0.00,VWS V14.00,2013-02-14 12:39:00,
2013-02-14 07:44:00,35.2,32.8,29.67,SSW,206,0.0,1.0,91,0.00,,---,0.00,VWS V14.00,2013-02-14 12:44:00,
2013-02-14 07:45:00,35.2,32.8,29.68,SSW,205,1.0,1.0,91,0.00,,---,0.00,VWS V14.00,2013-02-14 12:45:00,
2013-02-14 07:46:00,35.2,32.8,29.68,South,184,1.0,1.0,91,0.00,,---,0.00,VWS V14.00,2013-02-14 12:46:00,
2013-02-14 07:49:00,35.4,33.0,29.67,South,175,0.0,1.0,91,0.00,,---,0.00,VWS V14.00,2013-02-14 12:49:00,
2013-02-14 07:50:00,35.4,33.0,29.68,South,171,1.0,1.0,91,0.00,,---,0.00,VWS V14.00,2013-02-14 12:50:00,
2013-02-14 07:51:00,35.5,33.1,29.68,South,184,1.0,2.0,91,0.00,,---,0.00,VWS V14.00,2013-02-14 12:51:00,
2013-02-14 07:54:00,35.6,33.2,29.67,South,184,0.0,2.0,91,0.00,,---,0.00,VWS V14.00,2013-02-14 12:54:00,
2013-02-14 07:55:00,35.6,33.2,29.67,South,184,1.0,2.0,91,0.00,,---,0.00,VWS V14.00,2013-02-14 12:55:00,
2013-02-14 07:56:00,35.7,33.3,29.67,SSE,168,0.0,2.0,91,0.00,,---,0.00,VWS V14.00,2013-02-14 12:56:00,
2013-02-14 08:00:00,35.7,33.3,29.67,South,187,1.0,4.0,91,0.00,,---,0.00,VWS V14.00,2013-02-14 13:00:00,
2013-02-14 08:01:00,35.7,33.3,29.67,South,171,1.0,4.0,91,0.00,,---,0.00,VWS V14.00,2013-02-14 13:01:00,
2013-02-14 08:04:00,35.7,33.3,29.67,SSE,165,1.0,4.0,91,0.00,,---,0.00,VWS V14.00,2013-02-14 13:04:00,
2013-02-14 08:05:00,35.7,33.3,29.67,SW,215,1.0,4.0,91,0.00,,---,0.00,VWS V14.00,2013-02-14 13:05:00,
2013-02-14 08:06:00,35.7,33.3,29.67,South,176,0.0,4.0,91,0.00,,---,0.00,VWS V14.00,2013-02-14 13:06:00,
2013-02-14 08:10:00,35.8,33.4,29.67,South,173,2.0,4.0,91,0.00,,---,0.00,VWS V14.00,2013-02-14 13:10:00,
2013-02-14 08:11:00,35.8,33.4,29.67,South,188,0.0,4.0,91,0.00,,---,0.00,VWS V14.00,2013-02-14 13:11:00,
2013-02-14 08:12:00,35.7,33.3,29.67,South,179,1.0,4.0,91,0.00,,---,0.00,VWS V14.00,2013-02-14 13:12:00,
2013-02-14 08:15:00,35.9,33.5,29.67,SSW,199,1.0,4.0,91,0.00,,---,0.00,VWS V14.00,2013-02-14 13:15:00,
2013-02-14 08:16:00,35.8,33.4,29.67,South,169,1.0,4.0,91,0.00,,---,0.00,VWS V14.00,2013-02-14 13:16:00,
2013-02-14 08:17:00,35.8,33.4,29.67,South,178,2.0,5.0,91,0.00,,---,0.00,VWS V14.00,2013-02-14 13:17:00,
2013-02-14 08:21:00,35.8,33.4,29.67,SSW,200,1.0,6.0,91,0.00,,---,0.00,VWS V14.00,2013-02-14 13:21:00,
2013-02-14 08:23:00,35.9,33.5,29.67,South,169,2.0,6.0,91,0.00,,---,0.00,VWS V14.00,2013-02-14 13:23:00,
2013-02-14 08:25:00,35.9,33.5,29.67,South,171,6.0,6.0,91,0.00,,---,0.00,VWS V14.00,2013-02-14 13:25:00,
2013-02-14 08:26:00,36.0,33.6,29.67,SSW,196,4.0,7.0,91,0.00,,---,0.00,VWS V14.00,2013-02-14 13:26:00,
2013-02-14 08:28:00,36.0,33.6,29.67,South,172,1.0,7.0,91,0.00,,---,0.00,VWS V14.00,2013-02-14 13:28:00,
2013-02-14 08:29:00,35.9,33.5,29.67,South,184,0.0,5.0,91,0.00,,---,0.00,VWS V14.00,2013-02-14 13:29:00,
2013-02-14 08:30:00,35.9,33.5,29.67,SSW,193,2.0,5.0,91,0.00,,---,0.00,VWS V14.00,2013-02-14 13:30:00,
2013-02-14 08:31:00,35.9,33.5,29.67,South,188,2.0,5.0,91,0.00,,---,0.00,VWS V14.00,2013-02-14 13:31:00,
2013-02-14 08:33:00,35.9,33.5,29.67,SSE,155,2.0,7.0,91,0.00,,---,0.00,VWS V14.00,2013-02-14 13:33:00,
2013-02-14 08:36:00,36.0,33.6,29.67,SSE,165,1.0,7.0,91,0.00,,---,0.00,VWS V14.00,2013-02-14 13:36:00,
2013-02-14 08:38:00,36.0,33.6,29.67,SSW,199,5.0,7.0,91,0.00,,---,0.00,VWS V14.00,2013-02-14 13:38:00,
2013-02-14 08:40:00,36.1,33.7,29.67,SSE,168,3.0,7.0,91,0.00,,---,0.00,VWS V14.00,2013-02-14 13:40:00,
2013-02-14 08:42:00,36.1,33.5,29.66,SSW,196,2.0,7.0,90,0.00,,---,0.00,VWS V14.00,2013-02-14 13:42:00,
2013-02-14 08:45:00,36.2,33.6,29.66,SSW,192,3.0,9.0,90,0.00,,---,0.00,VWS V14.00,2013-02-14 13:45:00,
2013-02-14 08:47:00,36.3,33.7,29.66,South,179,2.0,9.0,90,0.00,,---,0.00,VWS V14.00,2013-02-14 13:47:00,
2013-02-14 08:48:00,36.3,33.7,29.66,South,171,4.0,9.0,90,0.00,,---,0.00,VWS V14.00,2013-02-14 13:48:00,
2013-02-14 08:50:00,36.4,33.8,29.66,South,188,3.0,9.0,90,0.00,,---,0.00,VWS V14.00,2013-02-14 13:50:00,
2013-02-14 08:54:00,36.5,33.8,29.66,South,178,2.0,9.0,90,0.00,,---,0.00,VWS V14.00,2013-02-14 13:54:00,
2013-02-14 08:55:00,36.5,33.8,29.66,SSW,197,2.0,10.0,90,0.00,,---,0.00,VWS V14.00,2013-02-14 13:55:00,
2013-02-14 08:56:00,36.6,34.0,29.66,South,169,2.0,10.0,90,0.00,,---,0.00,VWS V14.00,2013-02-14 13:56:00,
2013-02-14 08:59:00,36.6,34.0,29.66,South,178,2.0,5.0,90,0.00,,---,0.00,VWS V14.00,2013-02-14 13:59:00,
2013-02-14 09:00:00,36.6,34.0,29.66,South,180,1.0,5.0,90,0.00,,---,0.00,VWS V14.00,2013-02-14 14:00:00,
2013-02-14 09:01:00,36.6,34.0,29.66,South,178,1.0,6.0,90,0.00,,---,0.00,VWS V14.00,2013-02-14 14:01:00,
2013-02-14 09:02:00,36.7,34.0,29.66,South,171,4.0,6.0,90,0.00,,---,0.00,VWS V14.00,2013-02-14 14:02:00,
2013-02-14 09:04:00,36.8,34.2,29.66,SSW,206,1.0,6.0,90,0.00,,---,0.00,VWS V14.00,2013-02-14 14:04:00,
2013-02-14 09:05:00,36.8,34.2,29.66,SSW,192,2.0,6.0,90,0.00,,---,0.00,VWS V14.00,2013-02-14 14:05:00,
2013-02-14 09:07:00,36.8,34.2,29.66,SSW,211,5.0,7.0,90,0.00,,---,0.00,VWS V14.00,2013-02-14 14:07:00,
2013-02-14 09:08:00,36.9,34.0,29.66,South,173,3.0,7.0,89,0.00,,---,0.00,VWS V14.00,2013-02-14 14:08:00,
2013-02-14 09:10:00,36.9,34.0,29.66,South,179,1.0,7.0,89,0.00,,---,0.00,VWS V14.00,2013-02-14 14:10:00,
2013-02-14 09:11:00,36.9,34.0,29.66,South,178,2.0,7.0,89,0.00,,---,0.00,VWS V14.00,2013-02-14 14:11:00,
2013-02-14 09:12:00,37.0,34.1,29.66,South,187,5.0,7.0,89,0.00,,---,0.00,VWS V14.00,2013-02-14 14:12:00,
2013-02-14 09:13:00,37.1,34.2,29.66,SSW,212,7.0,7.0,89,0.00,,---,0.00,VWS V14.00,2013-02-14 14:13:00,
2013-02-14 09:16:00,37.1,34.2,29.66,South,175,5.0,9.0,89,0.00,,---,0.00,VWS V14.00,2013-02-14 14:16:00,
2013-02-14 09:17:00,37.2,34.3,29.66,South,178,3.0,9.0,89,0.00,,---,0.00,VWS V14.00,2013-02-14 14:17:00,
2013-02-14 09:19:00,37.3,34.4,29.65,SSE,165,2.0,9.0,89,0.00,,---,0.00,VWS V14.00,2013-02-14 14:19:00,
2013-02-14 09:22:00,37.4,34.5,29.65,SSW,196,5.0,9.0,89,0.00,,---,0.00,VWS V14.00,2013-02-14 14:22:00,
2013-02-14 09:23:00,37.5,34.6,29.65,South,175,2.0,9.0,89,0.00,,---,0.00,VWS V14.00,2013-02-14 14:23:00,
2013-02-14 09:26:00,37.7,34.8,29.65,South,182,1.0,9.0,89,0.00,,---,0.00,VWS V14.00,2013-02-14 14:26:00,
2013-02-14 09:28:00,37.7,34.8,29.65,South,173,4.0,9.0,89,0.00,,---,0.00,VWS V14.00,2013-02-14 14:28:00,
2013-02-14 09:29:00,37.8,34.6,29.65,South,183,2.0,2.0,88,0.00,,---,0.00,VWS V14.00,2013-02-14 14:29:00,
2013-02-14 09:30:00,37.8,34.6,29.65,South,179,2.0,10.0,88,0.00,,---,0.00,VWS V14.00,2013-02-14 14:30:00,
2013-02-14 09:32:00,37.9,34.7,29.65,SSW,195,5.0,10.0,88,0.00,,---,0.00,VWS V14.00,2013-02-14 14:32:00,
2013-02-14 09:33:00,37.9,34.7,29.65,South,181,2.0,10.0,88,0.00,,---,0.00,VWS V14.00,2013-02-14 14:33:00,
2013-02-14 09:36:00,38.1,34.9,29.65,South,169,6.0,10.0,88,0.00,,---,0.00,VWS V14.00,2013-02-14 14:36:00,
2013-02-14 09:37:00,38.2,35.0,29.65,South,177,2.0,10.0,88,0.00,,---,0.00,VWS V14.00,2013-02-14 14:37:00,
2013-02-14 09:40:00,38.3,35.1,29.65,South,173,4.0,12.0,88,0.00,,---,0.00,VWS V14.00,2013-02-14 14:40:00,
2013-02-14 09:41:00,38.4,35.2,29.65,SSE,168,5.0,12.0,88,0.00,,---,0.00,VWS V14.00,2013-02-14 14:41:00,
2013-02-14 09:43:00,38.5,35.0,29.65,South,184,2.0,12.0,87,0.00,,---,0.00,VWS V14.00,2013-02-14 14:43:00,
2013-02-14 09:46:00,38.6,35.1,29.65,South,172,4.0,12.0,87,0.00,,---,0.00,VWS V14.00,2013-02-14 14:46:00,
2013-02-14 09:48:00,38.6,34.8,29.65,South,181,4.0,12.0,86,0.00,,---,0.00,VWS V14.00,2013-02-14 14:48:00,
2013-02-14 09:49:00,38.7,34.9,29.65,SSW,192,2.0,12.0,86,0.00,,---,0.00,VWS V14.00,2013-02-14 14:49:00,
2013-02-14 09:53:00,38.9,35.1,29.65,West,262,3.0,12.0,86,0.00,,---,0.00,VWS V14.00,2013-02-14 14:53:00,
2013-02-14 09:54:00,39.0,34.9,29.65,SSW,203,0.0,12.0,85,0.00,,---,0.00,VWS V14.00,2013-02-14 14:54:00,
2013-02-14 09:55:00,39.0,34.9,29.65,SSW,209,1.0,12.0,85,0.00,,---,0.00,VWS V14.00,2013-02-14 14:55:00,
2013-02-14 09:59:00,39.3,34.9,29.65,SSE,167,4.0,7.0,84,0.00,,---,0.00,VWS V14.00,2013-02-14 14:59:00,
2013-02-14 10:00:00,39.3,34.9,29.65,SSW,193,3.0,7.0,84,0.00,,---,0.00,VWS V14.00,2013-02-14 15:00:00,
2013-02-14 10:02:00,39.4,35.0,29.64,SW,221,1.0,7.0,84,0.00,,---,0.00,VWS V14.00,2013-02-14 15:02:00,
2013-02-14 10:03:00,39.5,35.1,29.65,South,190,2.0,7.0,84,0.00,,---,0.00,VWS V14.00,2013-02-14 15:03:00,
2013-02-14 10:06:00,39.8,35.1,29.65,South,187,0.0,9.0,83,0.00,,---,0.00,VWS V14.00,2013-02-14 15:06:00,
2013-02-14 10:07:00,39.9,35.2,29.65,South,172,1.0,9.0,83,0.00,,---,0.00,VWS V14.00,2013-02-14 15:07:00,
2013-02-14 10:08:00,40.0,35.3,29.65,WSW,239,1.0,9.0,83,0.00,,---,0.00,VWS V14.00,2013-02-14 15:08:00,
2013-02-14 10:11:00,40.3,35.6,29.64,SSE,164,2.0,9.0,83,0.00,,---,0.00,VWS V14.00,2013-02-14 15:11:00,
2013-02-14 10:13:00,40.6,35.5,29.64,South,173,5.0,19.0,82,0.00,,---,0.00,VWS V14.00,2013-02-14 15:13:00,
2013-02-14 10:14:00,40.7,35.6,29.64,SSE,163,3.0,19.0,82,0.00,,---,0.00,VWS V14.00,2013-02-14 15:14:00,
2013-02-14 10:16:00,41.0,35.6,29.64,SSW,198,6.0,19.0,81,0.00,,---,0.00,VWS V14.00,2013-02-14 15:16:00,
2013-02-14 10:17:00,41.1,35.7,29.64,West,279,2.0,19.0,81,0.00,,---,0.00,VWS V14.00,2013-02-14 15:17:00,
2013-02-14 10:19:00,41.2,35.8,29.63,South,187,3.0,19.0,81,0.00,,---,0.00,VWS V14.00,2013-02-14 15:19:00,
2013-02-14 10:20:00,41.3,35.9,29.64,South,176,3.0,19.0,81,0.00,,---,0.00,VWS V14.00,2013-02-14 15:20:00,
2013-02-14 10:23:00,41.5,35.8,29.64,SSW,209,3.0,19.0,80,0.00,,---,0.00,VWS V14.00,2013-02-14 15:23:00,
2013-02-14 10:26:00,41.4,35.4,29.64,SSW,202,1.0,19.0,79,0.00,,---,0.00,VWS V14.00,2013-02-14 15:26:00,
2013-02-14 10:29:00,41.3,35.3,29.64,SW,215,3.0,9.0,79,0.00,,---,0.00,VWS V14.00,2013-02-14 15:29:00,
2013-02-14 10:30:00,41.2,35.2,29.64,SW,219,3.0,9.0,79,0.00,,---,0.00,VWS V14.00,2013-02-14 15:30:00,
2013-02-14 10:32:00,41.2,35.2,29.64,SW,234,10.0,13.0,79,0.00,,---,0.00,VWS V14.00,2013-02-14 15:32:00,
2013-02-14 10:33:00,41.1,35.1,29.65,SW,235,10.0,13.0,79,0.00,,---,0.00,VWS V14.00,2013-02-14 15:33:00,
2013-02-14 10:35:00,41.0,34.7,29.64,SW,223,0.0,13.0,78,0.00,,---,0.00,VWS V14.00,2013-02-14 15:35:00,
2013-02-14 10:36:00,41.0,36.2,29.64,WSW,250,4.0,20.0,83,0.00,,---,0.00,VWS V14.00,2013-02-14 15:36:00,
2013-02-14 10:39:00,40.9,34.6,29.64,SSW,202,14.0,20.0,78,0.00,,---,0.00,VWS V14.00,2013-02-14 15:39:00,
2013-02-14 10:40:00,41.0,34.7,29.65,West,274,2.0,20.0,78,0.00,,---,0.00,VWS V14.00,2013-02-14 15:40:00,
2013-02-14 10:41:00,41.1,34.8,29.64,West,269,5.0,25.0,78,0.00,,---,0.00,VWS V14.00,2013-02-14 15:41:00,
2013-02-14 10:45:00,40.9,34.6,29.64,WSW,249,6.0,25.0,78,0.00,,---,0.00,VWS V14.00,2013-02-14 15:45:00,
2013-02-14 10:46:00,40.9,34.6,29.65,West,281,4.0,25.0,78,0.00,,---,0.00,VWS V14.00,2013-02-14 15:46:00,
2013-02-14 10:47:00,40.9,34.6,29.65,WSW,241,6.0,25.0,78,0.00,,---,0.00,VWS V14.00,2013-02-14 15:47:00,
2013-02-14 10:52:00,41.1,35.1,29.65,WNW,283,2.0,25.0,79,0.00,,---,0.00,VWS V14.00,2013-02-14 15:52:00,
2013-02-14 10:57:00,41.2,34.9,29.65,SW,227,9.0,25.0,78,0.00,,---,0.00,VWS V14.00,2013-02-14 15:57:00,
2013-02-14 10:58:00,41.3,35.0,29.64,SW,234,6.0,25.0,78,0.00,,---,0.00,VWS V14.00,2013-02-14 15:58:00,
2013-02-14 10:59:00,41.2,34.9,29.64,WSW,244,7.0,7.0,78,0.00,,---,0.00,VWS V14.00,2013-02-14 15:59:00,
2013-02-14 11:02:00,41.5,35.2,29.64,WSW,250,1.0,12.0,78,0.00,,---,0.00,VWS V14.00,2013-02-14 16:02:00,
2013-02-14 11:03:00,41.5,35.2,29.64,SW,230,10.0,12.0,78,0.00,,---,0.00,VWS V14.00,2013-02-14 16:03:00,
2013-02-14 11:05:00,41.7,35.4,29.65,SW,236,9.0,14.0,78,0.00,,---,0.00,VWS V14.00,2013-02-14 16:05:00,
2013-02-14 11:08:00,41.7,35.0,29.65,West,268,12.0,16.0,77,0.00,,---,0.00,VWS V14.00,2013-02-14 16:08:00,
2013-02-14 11:10:00,41.7,35.0,29.65,WSW,246,3.0,16.0,77,0.00,,---,0.00,VWS V14.00,2013-02-14 16:10:00,
2013-02-14 11:11:00,41.7,35.0,29.65,WSW,252,5.0,16.0,77,0.00,,---,0.00,VWS V14.00,2013-02-14 16:11:00,
2013-02-14 11:12:00,41.8,35.1,29.65,WSW,254,3.0,16.0,77,0.00,,---,0.00,VWS V14.00,2013-02-14 16:12:00,
2013-02-14 11:14:00,41.9,35.2,29.65,WSW,246,8.0,16.0,77,0.00,,---,0.00,VWS V14.00,2013-02-14 16:14:00,
2013-02-14 11:15:00,41.9,35.2,29.64,SW,219,1.0,16.0,77,0.00,,---,0.00,VWS V14.00,2013-02-14 16:15:00,
2013-02-14 11:17:00,41.9,35.5,29.64,SW,225,0.0,16.0,78,0.00,,---,0.00,VWS V14.00,2013-02-14 16:17:00,
2013-02-14 11:18:00,41.8,35.1,29.64,West,260,0.0,16.0,77,0.00,,---,0.00,VWS V14.00,2013-02-14 16:18:00,
2013-02-14 11:19:00,41.8,35.1,29.65,SW,230,4.0,16.0,77,0.00,,---,0.00,VWS V14.00,2013-02-14 16:19:00,
2013-02-14 11:21:00,41.8,35.1,29.65,West,269,9.0,18.0,77,0.00,,---,0.00,VWS V14.00,2013-02-14 16:21:00,
2013-02-14 11:22:00,41.7,35.0,29.65,WSW,238,3.0,18.0,77,0.00,,---,0.00,VWS V14.00,2013-02-14 16:22:00,
2013-02-14 11:24:00,41.6,34.9,29.65,SSW,201,10.0,18.0,77,0.00,,---,0.00,VWS V14.00,2013-02-14 16:24:00,
2013-02-14 11:25:00,41.5,34.8,29.65,WSW,244,2.0,18.0,77,0.00,,---,0.00,VWS V14.00,2013-02-14 16:25:00,
2013-02-14 11:26:00,41.5,34.8,29.65,West,279,8.0,18.0,77,0.00,,---,0.00,VWS V14.00,2013-02-14 16:26:00,
2013-02-14 11:28:00,41.3,35.0,29.64,West,279,4.0,18.0,78,0.00,,---,0.00,VWS V14.00,2013-02-14 16:28:00,
2013-02-14 11:29:00,41.3,35.0,29.64,SW,236,17.0,17.0,78,0.00,,---,0.00,VWS V14.00,2013-02-14 16:29:00,
2013-02-14 11:30:00,41.3,35.0,29.64,SSW,210,0.0,17.0,78,0.00,,---,0.00,VWS V14.00,2013-02-14 16:30:00,
2013-02-14 11:31:00,41.2,34.9,29.64,SW,231,4.0,17.0,78,0.00,,---,0.00,VWS V14.00,2013-02-14 16:31:00,
2013-02-14 11:33:00,41.1,34.8,29.65,WSW,245,0.0,17.0,78,0.00,,---,0.00,VWS V14.00,2013-02-14 16:33:00,
2013-02-14 11:34:00,41.1,34.8,29.65,WSW,245,3.0,17.0,78,0.00,,---,0.00,VWS V14.00,2013-02-14 16:34:00,
2013-02-14 11:36:00,41.0,34.7,29.65,SW,236,0.0,17.0,78,0.00,,---,0.00,VWS V14.00,2013-02-14 16:36:00,
2013-02-14 11:38:00,41.0,36.2,29.65,WNW,301,2.0,17.0,83,0.00,,---,0.00,VWS V14.00,2013-02-14 16:38:00,
2013-02-14 11:39:00,41.0,35.0,29.65,SW,226,7.0,17.0,79,0.00,,---,0.00,VWS V14.00,2013-02-14 16:39:00,
2013-02-14 11:40:00,40.9,34.9,29.65,SW,236,3.0,17.0,79,0.00,,---,0.00,VWS V14.00,2013-02-14 16:40:00,
2013-02-14 11:42:00,40.9,34.9,29.65,SW,221,1.0,17.0,79,0.00,,---,0.00,VWS V14.00,2013-02-14 16:42:00,
2013-02-14 11:44:00,40.8,34.8,29.65,SW,231,0.0,17.0,79,0.00,,---,0.00,VWS V14.00,2013-02-14 16:44:00,
2013-02-14 11:45:00,40.8,34.8,29.65,SW,230,1.0,17.0,79,0.00,,---,0.00,VWS V14.00,2013-02-14 16:45:00,
2013-02-14 11:46:00,40.8,34.8,29.65,SSW,198,2.0,17.0,79,0.00,,---,0.00,VWS V14.00,2013-02-14 16:46:00,
2013-02-14 11:49:00,40.8,34.8,29.65,WSW,238,1.0,17.0,79,0.00,,---,0.00,VWS V14.00,2013-02-14 16:49:00,
2013-02-14 11:50:00,40.8,34.8,29.65,South,191,1.0,17.0,79,0.00,,---,0.00,VWS V14.00,2013-02-14 16:50:00,
2013-02-14 11:52:00,40.7,34.7,29.65,WSW,238,6.0,17.0,79,0.00,,---,0.00,VWS V14.00,2013-02-14 16:52:00,
2013-02-14 11:55:00,40.7,34.7,29.65,WNW,289,9.0,17.0,79,0.00,,---,0.00,VWS V14.00,2013-02-14 16:55:00,
2013-02-14 11:56:00,40.7,34.7,29.65,WSW,238,3.0,17.0,79,0.00,,---,0.00,VWS V14.00,2013-02-14 16:56:00,
2013-02-14 11:57:00,40.6,34.6,29.65,WSW,240,3.0,17.0,79,0.00,,---,0.00,VWS V14.00,2013-02-14 16:57:00,
2013-02-14 11:58:00,40.5,34.5,29.65,SW,218,14.0,17.0,79,0.00,,---,0.00,VWS V14.00,2013-02-14 16:58:00,
2013-02-14 12:01:00,40.5,34.8,29.65,SW,218,4.0,6.0,80,0.00,,---,0.00,VWS V14.00,2013-02-14 17:01:00,
2013-02-14 12:03:00,40.5,34.8,29.65,SW,233,1.0,13.0,80,0.00,,---,0.00,VWS V14.00,2013-02-14 17:03:00,
2013-02-14 12:04:00,40.5,34.8,29.65,SW,230,1.0,14.0,80,0.00,,---,0.00,VWS V14.00,2013-02-14 17:04:00,
2013-02-14 12:09:00,40.5,34.8,29.65,WSW,238,1.0,14.0,80,0.00,,---,0.00,VWS V14.00,2013-02-14 17:09:00,
2013-02-14 12:10:00,40.5,34.8,29.65,WSW,254,2.0,14.0,80,0.00,,---,0.00,VWS V14.00,2013-02-14 17:10:00,
2013-02-14 12:16:00,40.4,34.7,29.65,SSW,205,1.0,14.0,80,0.00,,---,0.00,VWS V14.00,2013-02-14 17:16:00,
2013-02-14 12:17:00,40.4,34.7,29.65,SSW,205,1.0,14.0,80,0.00,,---,0.00,VWS V14.00,2013-02-14 17:17:00,
2013-02-14 12:21:00,40.4,34.7,29.66,SSW,198,1.0,14.0,80,0.00,,---,0.00,VWS V14.00,2013-02-14 17:21:00,
2013-02-14 12:22:00,40.5,35.1,29.66,West,265,14.0,14.0,81,0.00,,---,0.00,VWS V14.00,2013-02-14 17:22:00,
2013-02-14 12:23:00,40.5,35.1,29.65,WSW,244,4.0,14.0,81,0.00,,---,0.00,VWS V14.00,2013-02-14 17:23:00,
2013-02-14 12:26:00,40.5,34.8,29.65,SW,229,1.0,14.0,80,0.00,,---,0.00,VWS V14.00,2013-02-14 17:26:00,
2013-02-14 12:28:00,40.5,34.8,29.65,West,268,2.0,14.0,80,0.00,,---,0.00,VWS V14.00,2013-02-14 17:28:00,
2013-02-14 12:29:00,40.5,34.8,29.65,WSW,240,1.0,9.0,80,0.00,,---,0.00,VWS V14.00,2013-02-14 17:29:00,
2013-02-14 12:32:00,40.6,34.9,29.64,South,179,2.0,9.0,80,0.00,,---,0.00,VWS V14.00,2013-02-14 17:32:00,
2013-02-14 12:33:00,40.7,35.0,29.65,SSW,205,2.0,11.0,80,0.00,,---,0.00,VWS V14.00,2013-02-14 17:33:00,
2013-02-14 12:35:00,40.8,35.1,29.65,WSW,244,7.0,11.0,80,0.00,,---,0.00,VWS V14.00,2013-02-14 17:35:00,
2013-02-14 12:38:00,40.8,35.1,29.64,WSW,238,2.0,11.0,80,0.00,,---,0.00,VWS V14.00,2013-02-14 17:38:00,
2013-02-14 12:39:00,40.9,35.2,29.64,SW,234,10.0,11.0,80,0.00,,---,0.00,VWS V14.00,2013-02-14 17:39:00,
2013-02-14 12:40:00,41.0,35.3,29.64,SW,221,1.0,11.0,80,0.00,,---,0.00,VWS V14.00,2013-02-14 17:40:00,
2013-02-14 12:41:00,41.0,35.3,29.64,WSW,239,2.0,11.0,80,0.00,,---,0.00,VWS V14.00,2013-02-14 17:41:00,
2013-02-14 12:46:00,41.1,35.1,29.64,WNW,288,12.0,12.0,79,0.00,,---,0.00,VWS V14.00,2013-02-14 17:46:00,
2013-02-14 12:47:00,41.1,35.1,29.64,West,268,5.0,17.0,79,0.00,,---,0.00,VWS V14.00,2013-02-14 17:47:00,
2013-02-14 12:51:00,41.1,35.1,29.64,WSW,253,4.0,17.0,79,0.00,,---,0.00,VWS V14.00,2013-02-14 17:51:00,
2013-02-14 12:52:00,41.1,35.1,29.64,West,276,9.0,17.0,79,0.00,,---,0.00,VWS V14.00,2013-02-14 17:52:00,
2013-02-14 12:54:00,41.2,34.9,29.64,SSW,193,7.0,17.0,78,0.00,,---,0.00,VWS V14.00,2013-02-14 17:54:00,
2013-02-14 12:57:00,41.1,34.8,29.64,West,264,4.0,17.0,78,0.00,,---,0.00,VWS V14.00,2013-02-14 17:57:00,
2013-02-14 12:58:00,41.1,34.8,29.64,WSW,252,5.0,17.0,78,0.00,,---,0.00,VWS V14.00,2013-02-14 17:58:00,
2013-02-14 12:59:00,41.1,34.8,29.64,WSW,240,2.0,5.0,78,0.00,,---,0.00,VWS V14.00,2013-02-14 17:59:00,
2013-02-14 13:02:00,41.1,34.8,29.64,WSW,237,1.0,11.0,78,0.00,,---,0.00,VWS V14.00,2013-02-14 18:02:00,
2013-02-14 13:04:00,41.1,34.8,29.64,West,263,10.0,12.0,78,0.00,,---,0.00,VWS V14.00,2013-02-14 18:04:00,
2013-02-14 13:05:00,41.1,34.8,29.64,WSW,250,4.0,12.0,78,0.00,,---,0.00,VWS V14.00,2013-02-14 18:05:00,
2013-02-14 13:06:00,41.1,34.8,29.64,West,263,9.0,13.0,78,0.00,,---,0.00,VWS V14.00,2013-02-14 18:06:00,
2013-02-14 13:09:00,41.1,34.8,29.64,WSW,242,4.0,14.0,78,0.00,,---,0.00,VWS V14.00,2013-02-14 18:09:00,
2013-02-14 13:10:00,41.0,34.7,29.64,WSW,240,2.0,14.0,78,0.00,,---,0.00,VWS V14.00,2013-02-14 18:10:00,
2013-02-14 13:11:00,41.0,34.7,29.64,West,279,2.0,14.0,78,0.00,,---,0.00,VWS V14.00,2013-02-14 18:11:00,
2013-02-14 13:12:00,40.9,34.6,29.64,West,267,4.0,14.0,78,0.00,,---,0.00,VWS V14.00,2013-02-14 18:12:00,
2013-02-14 13:14:00,40.9,34.6,29.64,West,269,3.0,14.0,78,0.00,,---,0.00,VWS V14.00,2013-02-14 18:14:00,
2013-02-14 13:16:00,40.8,34.8,29.64,West,271,6.0,14.0,79,0.00,,---,0.00,VWS V14.00,2013-02-14 18:16:00,
2013-02-14 13:19:00,40.8,34.8,29.64,SW,219,3.0,16.0,79,0.00,,---,0.00,VWS V14.00,2013-02-14 18:19:00,
2013-02-14 13:20:00,40.7,34.7,29.64,SW,233,9.0,16.0,79,0.00,,---,0.00,VWS V14.00,2013-02-14 18:20:00,
2013-02-14 13:22:00,40.7,34.7,29.64,WSW,257,3.0,16.0,79,0.00,,---,0.00,VWS V14.00,2013-02-14 18:22:00,
2013-02-14 13:23:00,40.6,34.6,29.64,West,269,6.0,16.0,79,0.00,,---,0.00,VWS V14.00,2013-02-14 18:23:00,
2013-02-14 13:25:00,40.6,34.6,29.64,WSW,250,2.0,16.0,79,0.00,,---,0.00,VWS V14.00,2013-02-14 18:25:00,
2013-02-14 13:26:00,40.6,34.6,29.64,WSW,252,4.0,16.0,79,0.00,,---,0.00,VWS V14.00,2013-02-14 18:26:00,
2013-02-14 13:28:00,40.6,34.6,29.64,WNW,282,4.0,16.0,79,0.00,,---,0.00,VWS V14.00,2013-02-14 18:28:00,
2013-02-14 13:31:00,40.5,34.5,29.64,West,280,7.0,16.0,79,0.00,,---,0.00,VWS V14.00,2013-02-14 18:31:00,
2013-02-14 13:33:00,40.5,34.5,29.64,WNW,284,6.0,16.0,79,0.00,,---,0.00,VWS V14.00,2013-02-14 18:33:00,
2013-02-14 13:34:00,40.6,34.6,29.64,West,259,1.0,16.0,79,0.00,,---,0.00,VWS V14.00,2013-02-14 18:34:00,
2013-02-14 13:39:00,40.6,34.6,29.64,West,261,6.0,16.0,79,0.00,,---,0.00,VWS V14.00,2013-02-14 18:39:00,
2013-02-14 13:40:00,40.6,34.6,29.64,West,263,10.0,20.0,79,0.00,,---,0.00,VWS V14.00,2013-02-14 18:40:00,
2013-02-14 13:41:00,40.6,34.3,29.64,West,271,5.0,20.0,78,0.00,,---,0.00,VWS V14.00,2013-02-14 18:41:00,
2013-02-14 13:45:00,40.6,34.3,29.64,WSW,258,20.0,22.0,78,0.00,,---,0.00,VWS V14.00,2013-02-14 18:45:00,
2013-02-14 13:46:00,40.6,34.3,29.64,WNW,291,10.0,22.0,78,0.00,,---,0.00,VWS V14.00,2013-02-14 18:46:00,
2013-02-14 13:47:00,40.5,34.2,29.64,West,273,12.0,24.0,78,0.00,,---,0.00,VWS V14.00,2013-02-14 18:47:00,
2013-02-14 13:51:00,40.5,33.9,29.64,WSW,249,16.0,24.0,77,0.00,,---,0.00,VWS V14.00,2013-02-14 18:51:00,
2013-02-14 13:52:00,40.5,33.9,29.64,West,269,23.0,24.0,77,0.00,,---,0.00,VWS V14.00,2013-02-14 18:52:00,
2013-02-14 13:54:00,40.5,33.5,29.64,West,279,17.0,31.0,76,0.00,,---,0.00,VWS V14.00,2013-02-14 18:54:00,
2013-02-14 13:56:00,40.5,33.5,29.64,West,267,14.0,31.0,76,0.00,,---,0.00,VWS V14.00,2013-02-14 18:56:00,
2013-02-14 13:59:00,40.5,33.5,29.64,SW,230,9.0,18.0,76,0.00,,---,0.00,VWS V14.00,2013-02-14 18:59:00,
2013-02-14 14:00:00,40.5,33.5,29.64,West,259,17.0,19.0,76,0.00,,---,0.00,VWS V14.00,2013-02-14 19:00:00,
2013-02-14 14:03:00,40.6,33.6,29.64,West,272,11.0,22.0,76,0.00,,---,0.00,VWS V14.00,2013-02-14 19:03:00,
2013-02-14 14:05:00,40.6,33.6,29.64,West,268,13.0,22.0,76,0.00,,---,0.00,VWS V14.00,2013-02-14 19:05:00,
2013-02-14 14:06:00,40.6,33.6,29.64,WNW,284,15.0,22.0,76,0.00,,---,0.00,VWS V14.00,2013-02-14 19:06:00,
2013-02-14 14:11:00,40.5,33.5,29.64,WNW,282,13.0,22.0,76,0.00,,---,0.00,VWS V14.00,2013-02-14 19:11:00,
2013-02-14 14:12:00,40.6,33.6,29.64,West,263,3.0,22.0,76,0.00,,---,0.00,VWS V14.00,2013-02-14 19:12:00,
2013-02-14 14:13:00,40.6,33.6,29.64,West,262,4.0,22.0,76,0.00,,---,0.00,VWS V14.00,2013-02-14 19:13:00,
2013-02-14 14:16:00,40.5,33.5,29.64,SW,219,4.0,22.0,76,0.00,,---,0.00,VWS V14.00,2013-02-14 19:16:00,
2013-02-14 14:18:00,40.5,33.5,29.64,West,265,7.0,22.0,76,0.00,,---,0.00,VWS V14.00,2013-02-14 19:18:00,
2013-02-14 14:19:00,40.4,33.5,29.64,WNW,290,14.0,22.0,76,0.00,,---,0.00,VWS V14.00,2013-02-14 19:19:00,
2013-02-14 14:21:00,40.2,33.2,29.64,WSW,248,14.0,23.0,76,0.00,,---,0.00,VWS V14.00,2013-02-14 19:21:00,
2013-02-14 14:23:00,40.1,33.5,29.64,West,277,26.0,27.0,77,0.00,,---,0.00,VWS V14.00,2013-02-14 19:23:00,
2013-02-14 14:25:00,39.9,33.3,29.65,WNW,282,14.0,31.0,77,0.00,,---,0.00,VWS V14.00,2013-02-14 19:25:00,
2013-02-14 14:26:00,39.8,33.2,29.65,West,262,12.0,31.0,77,0.00,,---,0.00,VWS V14.00,2013-02-14 19:26:00,
2013-02-14 14:29:00,39.8,33.2,29.65,WNW,292,10.0,30.0,77,0.00,,---,0.00,VWS V14.00,2013-02-14 19:29:00,
2013-02-14 14:30:00,39.7,33.1,29.65,WNW,290,15.0,30.0,77,0.00,,---,0.00,VWS V14.00,2013-02-14 19:30:00,
2013-02-14 14:31:00,39.7,33.1,29.65,West,275,13.0,30.0,77,0.00,,---,0.00,VWS V14.00,2013-02-14 19:31:00,
2013-02-14 14:32:00,39.7,33.1,29.65,WSW,254,6.0,30.0,77,0.00,,---,0.00,VWS V14.00,2013-02-14 19:32:00,
2013-02-14 14:36:00,39.5,33.2,29.65,West,275,17.0,30.0,78,0.00,,---,0.00,VWS V14.00,2013-02-14 19:36:00,
2013-02-14 14:37:00,39.3,33.0,29.65,West,275,19.0,30.0,78,0.00,,---,0.00,VWS V14.00,2013-02-14 19:37:00,
2013-02-14 14:38:00,39.3,33.3,29.65,West,267,16.0,30.0,79,0.00,,---,0.00,VWS V14.00,2013-02-14 19:38:00,
2013-02-14 14:41:00,39.1,33.2,29.65,West,263,4.0,30.0,79,0.00,,---,0.00,VWS V14.00,2013-02-14 19:41:00,
2013-02-14 14:42:00,39.1,33.2,29.66,West,264,11.0,30.0,79,0.00,,---,0.00,VWS V14.00,2013-02-14 19:42:00,
2013-02-14 14:44:00,39.2,33.2,29.65,West,270,13.0,30.0,79,0.00,,---,0.00,VWS V14.00,2013-02-14 19:44:00,
2013-02-14 14:47:00,39.2,33.6,29.65,West,275,12.0,30.0,80,0.00,,---,0.00,VWS V14.00,2013-02-14 19:47:00,
2013-02-14 14:48:00,39.2,33.6,29.65,West,267,2.0,30.0,80,0.00,,---,0.00,VWS V14.00,2013-02-14 19:48:00,
2013-02-14 14:49:00,39.1,33.5,29.65,West,273,19.0,30.0,80,0.00,,---,0.00,VWS V14.00,2013-02-14 19:49:00,
2013-02-14 14:52:00,39.0,33.7,29.65,WNW,288,15.0,30.0,81,0.00,,---,0.00,VWS V14.00,2013-02-14 19:52:00,
2013-02-14 14:53:00,39.0,33.7,29.65,West,262,17.0,30.0,81,0.00,,---,0.00,VWS V14.00,2013-02-14 19:53:00,
2013-02-14 14:54:00,39.0,33.7,29.65,West,280,22.0,30.0,81,0.00,,---,0.00,VWS V14.00,2013-02-14 19:54:00,
2013-02-14 14:55:00,38.9,33.6,29.65,WNW,298,16.0,30.0,81,0.00,,---,0.00,VWS V14.00,2013-02-14 19:55:00,
2013-02-14 14:58:00,38.8,33.8,29.65,WSW,255,20.0,30.0,82,0.00,,---,0.00,VWS V14.00,2013-02-14 19:58:00,
2013-02-14 14:59:00,38.7,33.7,29.66,West,267,12.0,15.0,82,0.00,,---,0.00,VWS V14.00,2013-02-14 19:59:00,
2013-02-14 15:01:00,38.7,33.7,29.66,West,272,12.0,21.0,82,0.00,,---,0.00,VWS V14.00,2013-02-14 20:01:00,
2013-02-14 15:04:00,38.7,34.0,29.66,West,267,3.0,21.0,83,0.00,,---,0.00,VWS V14.00,2013-02-14 20:04:00,
2013-02-14 15:05:00,38.7,34.0,29.66,West,261,6.0,21.0,83,0.00,,---,0.00,VWS V14.00,2013-02-14 20:05:00,
2013-02-14 15:08:00,38.8,34.1,29.66,West,272,16.0,21.0,83,0.00,,---,0.00,VWS V14.00,2013-02-14 20:08:00,
2013-02-14 15:10:00,38.7,34.0,29.66,WNW,288,10.0,23.0,83,0.00,,---,0.00,VWS V14.00,2013-02-14 20:10:00,
2013-02-14 15:11:00,38.7,34.0,29.66,WSW,257,5.0,23.0,83,0.00,,---,0.00,VWS V14.00,2013-02-14 20:11:00,
2013-02-14 15:14:00,38.6,33.9,29.66,WSW,244,18.0,23.0,83,0.00,,---,0.00,VWS V14.00,2013-02-14 20:14:00,
2013-02-14 15:15:00,38.6,33.9,29.66,West,271,7.0,23.0,83,0.00,,---,0.00,VWS V14.00,2013-02-14 20:15:00,
2013-02-14 15:16:00,38.6,33.9,29.66,West,272,5.0,23.0,83,0.00,,---,0.00,VWS V14.00,2013-02-14 20:16:00,
2013-02-14 15:17:00,38.6,33.9,29.66,WSW,249,5.0,23.0,83,0.00,,---,0.00,VWS V14.00,2013-02-14 20:17:00,
2013-02-14 15:21:00,38.7,34.0,29.66,West,273,12.0,23.0,83,0.00,,---,0.00,VWS V14.00,2013-02-14 20:21:00,
2013-02-14 15:23:00,38.8,34.1,29.66,West,280,14.0,23.0,83,0.00,,---,0.00,VWS V14.00,2013-02-14 20:23:00,
2013-02-14 15:24:00,38.8,34.1,29.66,West,267,4.0,23.0,83,0.00,,---,0.00,VWS V14.00,2013-02-14 20:24:00,
2013-02-14 15:27:00,38.9,34.2,29.67,WSW,253,7.0,23.0,83,0.00,,---,0.00,VWS V14.00,2013-02-14 20:27:00,
2013-02-14 15:28:00,38.9,33.9,29.67,West,281,13.0,23.0,82,0.00,,---,0.00,VWS V14.00,2013-02-14 20:28:00,
2013-02-14 15:30:00,38.9,33.9,29.67,West,265,15.0,22.0,82,0.00,,---,0.00,VWS V14.00,2013-02-14 20:30:00,
2013-02-14 15:33:00,38.9,33.9,29.67,West,271,16.0,22.0,82,0.00,,---,0.00,VWS V14.00,2013-02-14 20:33:00,
2013-02-14 15:35:00,38.9,33.6,29.67,NW,308,12.0,26.0,81,0.00,,---,0.00,VWS V14.00,2013-02-14 20:35:00,
2013-02-14 15:36:00,38.9,33.6,29.67,WNW,283,16.0,26.0,81,0.00,,---,0.00,VWS V14.00,2013-02-14 20:36:00,
2013-02-14 15:39:00,38.8,33.5,29.67,West,280,10.0,26.0,81,0.00,,---,0.00,VWS V14.00,2013-02-14 20:39:00,
2013-02-14 15:41:00,38.8,33.5,29.67,West,277,4.0,26.0,81,0.00,,---,0.00,VWS V14.00,2013-02-14 20:41:00,
2013-02-14 15:42:00,38.8,33.5,29.67,WNW,295,14.0,26.0,81,0.00,,---,0.00,VWS V14.00,2013-02-14 20:42:00,
2013-02-14 15:45:00,38.8,33.2,29.67,West,260,4.0,26.0,80,0.00,,---,0.00,VWS V14.00,2013-02-14 20:45:00,
2013-02-14 15:46:00,38.8,33.2,29.67,WNW,290,17.0,26.0,80,0.00,,---,0.00,VWS V14.00,2013-02-14 20:46:00,
2013-02-14 15:47:00,38.8,33.2,29.67,WNW,301,16.0,26.0,80,0.00,,---,0.00,VWS V14.00,2013-02-14 20:47:00,
2013-02-14 15:48:00,38.7,33.1,29.67,West,272,9.0,26.0,80,0.00,,---,0.00,VWS V14.00,2013-02-14 20:48:00,
2013-02-14 15:50:00,38.8,33.2,29.67,West,263,20.0,26.0,80,0.00,,---,0.00,VWS V14.00,2013-02-14 20:50:00,
2013-02-14 15:52:00,38.8,33.2,29.67,West,280,1.0,26.0,80,0.00,,---,0.00,VWS V14.00,2013-02-14 20:52:00,
2013-02-14 15:53:00,38.8,33.2,29.67,West,278,12.0,26.0,80,0.00,,---,0.00,VWS V14.00,2013-02-14 20:53:00,
2013-02-14 15:57:00,38.8,33.2,29.68,WNW,290,14.0,26.0,80,0.00,,---,0.00,VWS V14.00,2013-02-14 20:57:00,
2013-02-14 15:58:00,38.7,33.1,29.68,West,269,22.0,26.0,80,0.00,,---,0.00,VWS V14.00,2013-02-14 20:58:00,
2013-02-14 16:00:00,38.7,33.1,29.68,West,272,9.0,22.0,80,0.00,,---,0.00,VWS V14.00,2013-02-14 21:00:00,
2013-02-14 16:01:00,38.7,33.1,29.67,West,280,13.0,22.0,80,0.00,,---,0.00,VWS V14.00,2013-02-14 21:01:00,
2013-02-14 16:02:00,38.7,33.1,29.68,WNW,286,16.0,22.0,80,0.00,,---,0.00,VWS V14.00,2013-02-14 21:02:00,
2013-02-14 16:05:00,38.7,33.1,29.68,West,269,16.0,22.0,80,0.00,,---,0.00,VWS V14.00,2013-02-14 21:05:00,
2013-02-14 16:08:00,38.8,33.2,29.68,West,277,13.0,22.0,80,0.00,,---,0.00,VWS V14.00,2013-02-14 21:08:00,
2013-02-14 16:11:00,38.7,33.1,29.68,West,271,4.0,22.0,80,0.00,,---,0.00,VWS V14.00,2013-02-14 21:11:00,
2013-02-14 16:12:00,38.7,33.1,29.68,West,261,10.0,22.0,80,0.00,,---,0.00,VWS V14.00,2013-02-14 21:12:00,
2013-02-14 16:16:00,38.7,33.1,29.68,West,269,10.0,22.0,80,0.00,,---,0.00,VWS V14.00,2013-02-14 21:16:00,
2013-02-14 16:17:00,38.7,33.1,29.68,West,267,10.0,22.0,80,0.00,,---,0.00,VWS V14.00,2013-02-14 21:17:00,
2013-02-14 16:18:00,38.6,33.0,29.68,WNW,290,10.0,22.0,80,0.00,,---,0.00,VWS V14.00,2013-02-14 21:18:00,
2013-02-14 16:20:00,38.6,33.0,29.68,WSW,253,12.0,22.0,80,0.00,,---,0.00,VWS V14.00,2013-02-14 21:20:00,
2013-02-14 16:22:00,38.6,33.0,29.68,West,280,18.0,24.0,80,0.00,,---,0.00,VWS V14.00,2013-02-14 21:22:00,
2013-02-14 16:24:00,38.6,33.0,29.68,WNW,283,18.0,24.0,80,0.00,,---,0.00,VWS V14.00,2013-02-14 21:24:00,
2013-02-14 16:27:00,38.7,32.8,29.68,WNW,285,11.0,25.0,79,0.00,,---,0.00,VWS V14.00,2013-02-14 21:27:00,
2013-02-14 16:28:00,38.7,32.8,29.69,West,267,6.0,25.0,79,0.00,,---,0.00,VWS V14.00,2013-02-14 21:28:00,
2013-02-14 16:30:00,38.7,32.8,29.69,West,261,16.0,16.0,79,0.00,,---,0.00,VWS V14.00,2013-02-14 21:30:00,
2013-02-14 16:32:00,38.8,32.9,29.69,West,277,11.0,16.0,79,0.00,,---,0.00,VWS V14.00,2013-02-14 21:32:00,
2013-02-14 16:34:00,38.8,32.9,29.69,West,272,14.0,31.0,79,0.00,,---,0.00,VWS V14.00,2013-02-14 21:34:00,
2013-02-14 16:35:00,38.8,32.9,29.69,West,267,13.0,31.0,79,0.00,,---,0.00,VWS V14.00,2013-02-14 21:35:00,
2013-02-14 16:37:00,38.8,32.9,29.68,NW,315,12.0,31.0,79,0.00,,---,0.00,VWS V14.00,2013-02-14 21:37:00,
2013-02-14 16:38:00,38.8,32.9,29.69,WNW,299,4.0,31.0,79,0.00,,---,0.00,VWS V14.00,2013-02-14 21:38:00,
2013-02-14 16:40:00,38.8,32.9,29.69,West,274,18.0,31.0,79,0.00,,---,0.00,VWS V14.00,2013-02-14 21:40:00,
2013-02-14 16:42:00,38.8,32.9,29.69,West,267,12.0,31.0,79,0.00,,---,0.00,VWS V14.00,2013-02-14 21:42:00,
2013-02-14 16:43:00,38.8,32.9,29.69,West,264,7.0,31.0,79,0.00,,---,0.00,VWS V14.00,2013-02-14 21:43:00,
2013-02-14 16:45:00,38.8,32.9,29.69,WNW,287,9.0,31.0,79,0.00,,---,0.00,VWS V14.00,2013-02-14 21:45:00,
2013-02-14 16:46:00,38.8,32.9,29.69,West,263,12.0,31.0,79,0.00,,---,0.00,VWS V14.00,2013-02-14 21:46:00,
2013-02-14 16:49:00,38.8,32.9,29.69,WNW,290,21.0,31.0,79,0.00,,---,0.00,VWS V14.00,2013-02-14 21:49:00,
2013-02-14 16:50:00,38.8,32.9,29.69,WNW,284,16.0,31.0,79,0.00,,---,0.00,VWS V14.00,2013-02-14 21:50:00,
2013-02-14 16:51:00,38.8,32.9,29.69,WNW,284,12.0,31.0,79,0.00,,---,0.00,VWS V14.00,2013-02-14 21:51:00,
2013-02-14 16:52:00,38.8,32.9,29.69,West,281,3.0,31.0,79,0.00,,---,0.00,VWS V14.00,2013-02-14 21:52:00,
2013-02-14 16:55:00,38.8,32.9,29.69,West,277,21.0,31.0,79,0.00,,---,0.00,VWS V14.00,2013-02-14 21:55:00,
2013-02-14 16:56:00,38.8,32.9,29.69,West,263,18.0,31.0,79,0.00,,---,0.00,VWS V14.00,2013-02-14 21:56:00,
2013-02-14 16:57:00,38.8,32.9,29.69,NW,310,19.0,31.0,79,0.00,,---,0.00,VWS V14.00,2013-02-14 21:57:00,
2013-02-14 17:00:00,38.8,32.9,29.70,West,261,16.0,17.0,79,0.00,,---,0.00,VWS V14.00,2013-02-14 22:00:00,
2013-02-14 17:02:00,38.7,33.1,29.70,WNW,285,15.0,26.0,80,0.00,,---,0.00,VWS V14.00,2013-02-14 22:02:00,
2013-02-14 17:03:00,38.7,33.1,29.70,West,278,16.0,26.0,80,0.00,,---,0.00,VWS V14.00,2013-02-14 22:03:00,
2013-02-14 17:05:00,38.7,33.1,29.70,WNW,290,13.0,26.0,80,0.00,,---,0.00,VWS V14.00,2013-02-14 22:05:00,
2013-02-14 17:06:00,38.6,33.0,29.70,West,269,4.0,26.0,80,0.00,,---,0.00,VWS V14.00,2013-02-14 22:06:00,
2013-02-14 17:09:00,38.6,33.0,29.71,NW,307,15.0,26.0,80,0.00,,---,0.00,VWS V14.00,2013-02-14 22:09:00,
2013-02-14 17:10:00,38.6,33.0,29.71,WNW,291,23.0,28.0,80,0.00,,---,0.00,VWS V14.00,2013-02-14 22:10:00,
2013-02-14 17:11:00,38.6,33.0,29.71,WNW,283,13.0,28.0,80,0.00,,---,0.00,VWS V14.00,2013-02-14 22:11:00,
2013-02-14 17:12:00,38.5,32.9,29.71,WNW,298,17.0,28.0,80,0.00,,---,0.00,VWS V14.00,2013-02-14 22:12:00,
2013-02-14 17:15:00,38.2,32.6,29.71,WNW,290,5.0,30.0,80,0.00,,---,0.00,VWS V14.00,2013-02-14 22:15:00,
2013-02-14 17:16:00,38.2,32.6,29.71,NW,326,18.0,30.0,80,0.00,,---,0.00,VWS V14.00,2013-02-14 22:16:00,
2013-02-14 17:18:00,38.0,32.7,29.72,WNW,300,11.0,30.0,81,0.00,,---,0.00,VWS V14.00,2013-02-14 22:18:00,
2013-02-14 17:21:00,37.9,32.6,29.72,NW,319,21.0,30.0,81,0.00,,---,0.00,VWS V14.00,2013-02-14 22:21:00,
2013-02-14 17:22:00,37.9,32.6,29.72,NW,310,17.0,30.0,81,0.00,,---,0.00,VWS V14.00,2013-02-14 22:22:00,
2013-02-14 17:23:00,37.8,32.5,29.72,NNW,329,3.0,30.0,81,0.00,,---,0.00,VWS V14.00,2013-02-14 22:23:00,
2013-02-14 17:27:00,37.7,32.7,29.73,WNW,296,12.0,30.0,82,0.00,,---,0.00,VWS V14.00,2013-02-14 22:27:00,
2013-02-14 17:28:00,37.7,32.7,29.72,NW,319,10.0,14.0,82,0.00,,---,0.00,VWS V14.00,2013-02-14 22:28:00,
2013-02-14 17:30:00,37.7,32.7,29.73,NW,314,11.0,19.0,82,0.00,,---,0.00,VWS V14.00,2013-02-14 22:30:00,
2013-02-14 17:33:00,37.6,32.6,29.73,WNW,294,13.0,22.0,82,0.00,,---,0.00,VWS V14.00,2013-02-14 22:33:00,
2013-02-14 17:34:00,37.6,32.6,29.73,West,275,17.0,22.0,82,0.00,,---,0.00,VWS V14.00,2013-02-14 22:34:00,
2013-02-14 17:36:00,37.6,32.6,29.73,West,276,13.0,22.0,82,0.00,,---,0.00,VWS V14.00,2013-02-14 22:36:00,
2013-02-14 17:38:00,37.5,32.5,29.73,WNW,288,9.0,25.0,82,0.00,,---,0.00,VWS V14.00,2013-02-14 22:38:00,
2013-02-14 17:39:00,37.5,32.5,29.73,West,262,3.0,25.0,82,0.00,,---,0.00,VWS V14.00,2013-02-14 22:39:00,
2013-02-14 17:41:00,37.4,32.4,29.74,NW,309,5.0,25.0,82,0.00,,---,0.00,VWS V14.00,2013-02-14 22:41:00,
2013-02-14 17:44:00,37.4,32.4,29.74,WNW,294,13.0,25.0,82,0.00,,---,0.00,VWS V14.00,2013-02-14 22:44:00,
2013-02-14 17:45:00,37.4,32.4,29.74,NW,313,10.0,25.0,82,0.00,,---,0.00,VWS V14.00,2013-02-14 22:45:00,
2013-02-14 17:46:00,37.3,32.3,29.74,West,269,16.0,25.0,82,0.00,,---,0.00,VWS V14.00,2013-02-14 22:46:00,
2013-02-14 17:50:00,37.3,32.3,29.74,WNW,283,6.0,25.0,82,0.00,,---,0.00,VWS V14.00,2013-02-14 22:50:00,
2013-02-14 17:51:00,37.3,32.3,29.74,WNW,284,7.0,25.0,82,0.00,,---,0.00,VWS V14.00,2013-02-14 22:51:00,
2013-02-14 17:52:00,37.3,32.3,29.74,WNW,297,21.0,25.0,82,0.00,,---,0.00,VWS V14.00,2013-02-14 22:52:00,
2013-02-14 17:56:00,37.2,32.2,29.74,NW,311,17.0,25.0,82,0.00,,---,0.00,VWS V14.00,2013-02-14 22:56:00,
2013-02-14 17:57:00,37.2,32.2,29.74,WNW,290,14.0,25.0,82,0.00,,---,0.00,VWS V14.00,2013-02-14 22:57:00,
2013-02-14 17:58:00,37.2,32.2,29.75,WNW,299,13.0,25.0,82,0.00,,---,0.00,VWS V14.00,2013-02-14 22:58:00,
2013-02-14 18:01:00,37.2,32.2,29.74,West,273,14.0,23.0,82,0.00,,---,0.00,VWS V14.00,2013-02-14 23:01:00,
2013-02-14 18:02:00,37.2,32.2,29.75,WNW,292,15.0,23.0,82,0.00,,---,0.00,VWS V14.00,2013-02-14 23:02:00,
2013-02-14 18:04:00,37.1,32.1,29.75,WNW,285,11.0,23.0,82,0.00,,---,0.00,VWS V14.00,2013-02-14 23:04:00,
2013-02-14 18:05:00,37.1,32.1,29.75,West,277,15.0,23.0,82,0.00,,---,0.00,VWS V14.00,2013-02-14 23:05:00,
2013-02-14 18:09:00,37.1,32.1,29.75,NW,313,22.0,23.0,82,0.00,,---,0.00,VWS V14.00,2013-02-14 23:09:00,
2013-02-14 18:10:00,37.0,32.0,29.75,NW,306,13.0,31.0,82,0.00,,---,0.00,VWS V14.00,2013-02-14 23:10:00,
2013-02-14 18:11:00,37.0,32.0,29.75,WNW,298,13.0,31.0,82,0.00,,---,0.00,VWS V14.00,2013-02-14 23:11:00,
2013-02-14 18:15:00,36.8,31.8,29.75,WNW,288,22.0,32.0,82,0.00,,---,0.00,VWS V14.00,2013-02-14 23:15:00,
2013-02-14 18:16:00,36.8,31.8,29.76,NW,310,19.0,32.0,82,0.00,,---,0.00,VWS V14.00,2013-02-14 23:16:00,
2013-02-14 18:17:00,36.8,31.8,29.75,West,277,8.0,32.0,82,0.00,,---,0.00,VWS V14.00,2013-02-14 23:17:00,
2013-02-14 18:20:00,36.7,31.7,29.76,WNW,288,12.0,32.0,82,0.00,,---,0.00,VWS V14.00,2013-02-14 23:20:00,
2013-02-14 18:22:00,36.7,32.0,29.76,NW,307,14.0,32.0,83,0.00,,---,0.00,VWS V14.00,2013-02-14 23:22:00,
2013-02-14 18:25:00,36.6,31.9,29.76,WNW,297,13.0,32.0,83,0.00,,---,0.00,VWS V14.00,2013-02-14 23:25:00,
2013-02-14 18:26:00,36.6,31.9,29.76,NW,315,9.0,32.0,83,0.00,,---,0.00,VWS V14.00,2013-02-14 23:26:00,
2013-02-14 18:28:00,36.5,31.8,29.76,NW,315,15.0,32.0,83,0.00,,---,0.00,VWS V14.00,2013-02-14 23:28:00,
2013-02-14 18:30:00,36.5,31.8,29.76,NW,317,14.0,18.0,83,0.00,,---,0.00,VWS V14.00,2013-02-14 23:30:00,
2013-02-14 18:32:00,36.4,31.7,29.77,NW,326,13.0,18.0,83,0.00,,---,0.00,VWS V14.00,2013-02-14 23:32:00,
2013-02-14 18:34:00,36.3,31.6,29.77,NW,310,14.0,20.0,83,0.00,,---,0.00,VWS V14.00,2013-02-14 23:34:00,
2013-02-14 18:36:00,36.2,31.5,29.77,WNW,292,14.0,25.0,83,0.00,,---,0.00,VWS V14.00,2013-02-14 23:36:00,
2013-02-14 18:39:00,36.2,31.8,29.77,West,279,11.0,25.0,84,0.00,,---,0.00,VWS V14.00,2013-02-14 23:39:00,
2013-02-14 18:40:00,36.2,31.8,29.77,NW,307,15.0,25.0,84,0.00,,---,0.00,VWS V14.00,2013-02-14 23:40:00,
2013-02-14 18:41:00,36.1,31.7,29.77,NW,306,19.0,25.0,84,0.00,,---,0.00,VWS V14.00,2013-02-14 23:41:00,
2013-02-14 18:43:00,36.1,31.7,29.77,NW,317,13.0,25.0,84,0.00,,---,0.00,VWS V14.00,2013-02-14 23:43:00,
2013-02-14 18:44:00,36.1,31.7,29.77,NW,323,11.0,25.0,84,0.00,,---,0.00,VWS V14.00,2013-02-14 23:44:00,
2013-02-14 18:46:00,36.0,31.6,29.78,NW,317,17.0,25.0,84,0.00,,---,0.00,VWS V14.00,2013-02-14 23:46:00,
2013-02-14 18:49:00,36.0,31.6,29.78,NW,306,12.0,25.0,84,0.00,,---,0.00,VWS V14.00,2013-02-14 23:49:00,
2013-02-14 18:50:00,36.0,31.6,29.78,NNW,346,11.0,25.0,84,0.00,,---,0.00,VWS V14.00,2013-02-14 23:50:00,
2013-02-14 18:51:00,36.0,31.6,29.78,NW,321,7.0,25.0,84,0.00,,---,0.00,VWS V14.00,2013-02-14 23:51:00,
2013-02-14 18:52:00,36.0,31.6,29.78,West,280,16.0,26.0,84,0.00,,---,0.00,VWS V14.00,2013-02-14 23:52:00,
2013-02-14 18:55:00,36.0,31.4,29.78,WNW,290,12.0,26.0,83,0.00,,---,0.00,VWS V14.00,2013-02-14 23:55:00,
2013-02-14 18:57:00,36.0,31.4,29.78,NW,311,18.0,26.0,83,0.00,,---,0.00,VWS V14.00,2013-02-14 23:57:00,
2013-02-14 18:58:00,36.0,31.4,29.78,WNW,300,15.0,26.0,83,0.00,,---,0.00,VWS V14.00,2013-02-14 23:58:00,
2013-02-14 19:00:00,36.0,31.4,29.79,West,277,5.0,17.0,83,0.00,,---,0.00,VWS V14.00,2013-02-15 00:00:00,
2013-02-14 19:03:00,36.1,31.1,29.79,West,277,7.0,17.0,82,0.00,,---,0.00,VWS V14.00,2013-02-15 00:03:00,
2013-02-14 19:05:00,36.1,31.1,29.79,WNW,294,12.0,17.0,82,0.00,,---,0.00,VWS V14.00,2013-02-15 00:05:00,
2013-02-14 19:08:00,36.1,31.1,29.79,WNW,300,12.0,20.0,82,0.00,,---,0.00,VWS V14.00,2013-02-15 00:08:00,
2013-02-14 19:10:00,36.1,31.1,29.80,NW,323,14.0,20.0,82,0.00,,---,0.00,VWS V14.00,2013-02-15 00:10:00,
2013-02-14 19:11:00,36.1,31.1,29.80,NW,326,13.0,20.0,82,0.00,,---,0.00,VWS V14.00,2013-02-15 00:11:00,
2013-02-14 19:13:00,36.0,30.8,29.79,NW,305,9.0,20.0,81,0.00,,---,0.00,VWS V14.00,2013-02-15 00:13:00,
2013-02-14 19:14:00,36.0,30.8,29.79,NW,313,15.0,20.0,81,0.00,,---,0.00,VWS V14.00,2013-02-15 00:14:00,
2013-02-14 19:16:00,36.0,30.8,29.79,NW,313,7.0,20.0,81,0.00,,---,0.00,VWS V14.00,2013-02-15 00:16:00,
2013-02-14 19:19:00,36.0,30.8,29.80,WNW,294,10.0,24.0,81,0.00,,---,0.00,VWS V14.00,2013-02-15 00:19:00,
2013-02-14 19:21:00,36.0,30.8,29.80,WNW,286,12.0,24.0,81,0.00,,---,0.00,VWS V14.00,2013-02-15 00:21:00,
2013-02-14 19:22:00,36.0,30.8,29.80,NW,326,15.0,24.0,81,0.00,,---,0.00,VWS V14.00,2013-02-15 00:22:00,
2013-02-14 19:24:00,36.0,30.8,29.80,NW,319,5.0,24.0,81,0.00,,---,0.00,VWS V14.00,2013-02-15 00:24:00,
2013-02-14 19:25:00,36.0,30.8,29.80,WNW,295,14.0,24.0,81,0.00,,---,0.00,VWS V14.00,2013-02-15 00:25:00,
2013-02-14 19:27:00,36.0,30.8,29.80,WNW,298,14.0,24.0,81,0.00,,---,0.00,VWS V14.00,2013-02-15 00:27:00,
2013-02-14 19:29:00,36.0,30.8,29.80,WNW,299,10.0,19.0,81,0.00,,---,0.00,VWS V14.00,2013-02-15 00:29:00,
2013-02-14 19:31:00,35.9,30.6,29.81,NW,309,10.0,22.0,81,0.00,,---,0.00,VWS V14.00,2013-02-15 00:31:00,
2013-02-14 19:32:00,35.9,30.6,29.81,NW,311,13.0,22.0,81,0.00,,---,0.00,VWS V14.00,2013-02-15 00:32:00,
2013-02-14 19:34:00,35.9,30.6,29.81,NNW,330,17.0,24.0,81,0.00,,---,0.00,VWS V14.00,2013-02-15 00:34:00,
2013-02-14 19:37:00,35.9,30.6,29.81,NW,306,14.0,24.0,81,0.00,,---,0.00,VWS V14.00,2013-02-15 00:37:00,
2013-02-14 19:38:00,35.9,30.6,29.81,NW,305,16.0,24.0,81,0.00,,---,0.00,VWS V14.00,2013-02-15 00:38:00,
2013-02-14 19:39:00,35.9,30.3,29.81,NW,317,16.0,24.0,80,0.00,,---,0.00,VWS V14.00,2013-02-15 00:39:00,
2013-02-14 19:43:00,35.9,30.3,29.81,NNW,329,14.0,24.0,80,0.00,,---,0.00,VWS V14.00,2013-02-15 00:43:00,
2013-02-14 19:44:00,35.9,30.3,29.81,NNW,341,13.0,24.0,80,0.00,,---,0.00,VWS V14.00,2013-02-15 00:44:00,
2013-02-14 19:45:00,35.8,30.2,29.81,WNW,296,7.0,24.0,80,0.00,,---,0.00,VWS V14.00,2013-02-15 00:45:00,
2013-02-14 19:46:00,35.8,30.5,29.82,NW,307,16.0,24.0,81,0.00,,---,0.00,VWS V14.00,2013-02-15 00:46:00,
2013-02-14 19:49:00,35.7,30.5,29.82,WNW,302,16.0,24.0,81,0.00,,---,0.00,VWS V14.00,2013-02-15 00:49:00,
2013-02-14 19:51:00,35.7,30.5,29.82,NNW,332,11.0,24.0,81,0.00,,---,0.00,VWS V14.00,2013-02-15 00:51:00,
2013-02-14 19:54:00,35.5,30.6,29.82,WNW,284,21.0,24.0,82,0.00,,---,0.00,VWS V14.00,2013-02-15 00:54:00,
2013-02-14 19:56:00,35.4,30.8,29.82,WNW,295,12.0,24.0,83,0.00,,---,0.00,VWS V14.00,2013-02-15 00:56:00,
2013-02-14 19:57:00,35.3,30.7,29.82,NW,316,13.0,24.0,83,0.00,,---,0.00,VWS V14.00,2013-02-15 00:57:00,
2013-02-14 19:59:00,35.3,30.7,29.82,WNW,299,15.0,15.0,83,0.00,,---,0.00,VWS V14.00,2013-02-15 00:59:00,
2013-02-14 20:01:00,35.2,30.6,29.82,West,263,14.0,19.0,83,0.00,,---,0.00,VWS V14.00,2013-02-15 01:01:00,
2013-02-14 20:02:00,35.2,30.9,29.82,WNW,291,6.0,25.0,84,0.00,,---,0.00,VWS V14.00,2013-02-15 01:02:00,
2013-02-14 20:04:00,35.2,30.9,29.82,WNW,289,7.0,25.0,84,0.00,,---,0.00,VWS V14.00,2013-02-15 01:04:00,
2013-02-14 20:05:00,35.2,30.9,29.82,NW,325,14.0,25.0,84,0.00,,---,0.00,VWS V14.00,2013-02-15 01:05:00,
2013-02-14 20:06:00,35.2,30.9,29.82,WNW,291,13.0,25.0,84,0.00,,---,0.00,VWS V14.00,2013-02-15 01:06:00,
2013-02-14 20:08:00,35.1,30.8,29.83,NNW,334,10.0,25.0,84,0.00,,---,0.00,VWS V14.00,2013-02-15 01:08:00,
2013-02-14 20:09:00,35.1,30.8,29.82,West,275,13.0,25.0,84,0.00,,---,0.00,VWS V14.00,2013-02-15 01:09:00,
2013-02-14 20:10:00,35.1,30.8,29.83,NW,306,13.0,25.0,84,0.00,,---,0.00,VWS V14.00,2013-02-15 01:10:00,
2013-02-14 20:11:00,35.1,30.8,29.83,NNW,338,13.0,25.0,84,0.00,,---,0.00,VWS V14.00,2013-02-15 01:11:00,
2013-02-14 20:13:00,35.0,30.7,29.83,WNW,299,7.0,25.0,84,0.00,,---,0.00,VWS V14.00,2013-02-15 01:13:00,
2013-02-14 20:14:00,35.0,31.0,29.83,West,275,5.0,25.0,85,0.00,,---,0.00,VWS V14.00,2013-02-15 01:14:00,
2013-02-14 20:16:00,35.0,31.0,29.83,NW,318,9.0,25.0,85,0.00,,---,0.00,VWS V14.00,2013-02-15 01:16:00,
2013-02-14 20:18:00,35.0,31.0,29.83,NW,315,6.0,25.0,85,0.00,,---,0.00,VWS V14.00,2013-02-15 01:18:00,
2013-02-14 20:19:00,35.0,31.0,29.83,NW,310,16.0,25.0,85,0.00,,---,0.00,VWS V14.00,2013-02-15 01:19:00,
2013-02-14 20:21:00,35.0,31.0,29.83,NW,304,11.0,25.0,85,0.00,,---,0.00,VWS V14.00,2013-02-15 01:21:00,
2013-02-14 20:22:00,35.0,31.0,29.83,WNW,302,6.0,25.0,85,0.00,,---,0.00,VWS V14.00,2013-02-15 01:22:00,
2013-02-14 20:24:00,34.9,30.9,29.83,NW,311,10.0,25.0,85,0.00,,---,0.00,VWS V14.00,2013-02-15 01:24:00,
2013-02-14 20:25:00,34.9,30.9,29.83,NW,312,7.0,25.0,85,0.00,,---,0.00,VWS V14.00,2013-02-15 01:25:00,
2013-02-14 20:27:00,34.9,30.9,29.83,NW,323,10.0,25.0,85,0.00,,---,0.00,VWS V14.00,2013-02-15 01:27:00,
2013-02-14 20:28:00,34.9,30.9,29.83,WNW,291,10.0,10.0,85,0.00,,---,0.00,VWS V14.00,2013-02-15 01:28:00,
2013-02-14 20:29:00,34.9,30.9,29.83,WNW,294,5.0,10.0,85,0.00,,---,0.00,VWS V14.00,2013-02-15 01:29:00,
2013-02-14 20:33:00,34.9,30.9,29.83,WNW,288,9.0,15.0,85,0.00,,---,0.00,VWS V14.00,2013-02-15 01:33:00,
2013-02-14 20:34:00,34.9,30.9,29.83,West,279,8.0,15.0,85,0.00,,---,0.00,VWS V14.00,2013-02-15 01:34:00,
2013-02-14 20:35:00,34.9,30.9,29.83,WNW,298,5.0,15.0,85,0.00,,---,0.00,VWS V14.00,2013-02-15 01:35:00,
2013-02-14 20:39:00,34.6,30.9,29.83,NW,326,5.0,15.0,86,0.00,,---,0.00,VWS V14.00,2013-02-15 01:39:00,
2013-02-14 20:40:00,34.6,30.9,29.83,NNW,337,6.0,15.0,86,0.00,,---,0.00,VWS V14.00,2013-02-15 01:40:00,
2013-02-14 20:41:00,34.4,30.6,29.83,NW,315,9.0,15.0,86,0.00,,---,0.00,VWS V14.00,2013-02-15 01:41:00,
2013-02-14 20:42:00,34.4,30.6,29.83,NNW,327,5.0,15.0,86,0.00,,---,0.00,VWS V14.00,2013-02-15 01:42:00,
2013-02-14 20:44:00,34.4,30.9,29.83,NNW,348,4.0,15.0,87,0.00,,---,0.00,VWS V14.00,2013-02-15 01:44:00,
2013-02-14 20:46:00,34.3,30.8,29.83,NNW,346,9.0,15.0,87,0.00,,---,0.00,VWS V14.00,2013-02-15 01:46:00,
2013-02-14 20:47:00,34.2,30.7,29.83,NNW,344,12.0,15.0,87,0.00,,---,0.00,VWS V14.00,2013-02-15 01:47:00,
2013-02-14 20:49:00,34.1,30.9,29.83,NW,307,7.0,15.0,88,0.00,,---,0.00,VWS V14.00,2013-02-15 01:49:00,
2013-02-14 20:50:00,34.0,30.8,29.83,NW,313,6.0,15.0,88,0.00,,---,0.00,VWS V14.00,2013-02-15 01:50:00,
2013-02-14 20:52:00,33.9,30.7,29.83,NW,321,11.0,15.0,88,0.00,,---,0.00,VWS V14.00,2013-02-15 01:52:00,
2013-02-14 20:55:00,33.9,31.0,29.83,NW,319,6.0,16.0,89,0.00,,---,0.00,VWS V14.00,2013-02-15 01:55:00,
2013-02-14 20:56:00,33.9,31.0,29.84,NW,306,6.0,16.0,89,0.00,,---,0.00,VWS V14.00,2013-02-15 01:56:00,
2013-02-14 21:00:00,33.9,31.0,29.83,WNW,302,10.0,11.0,89,0.00,,---,0.00,VWS V14.00,2013-02-15 02:00:00,
2013-02-14 21:01:00,33.8,30.9,29.83,NW,324,14.0,14.0,89,0.00,,---,0.00,VWS V14.00,2013-02-15 02:01:00,
2013-02-14 21:02:00,33.8,30.9,29.84,NW,319,8.0,14.0,89,0.00,,---,0.00,VWS V14.00,2013-02-15 02:02:00,
2013-02-14 21:05:00,33.6,31.0,29.84,NNW,327,3.0,14.0,90,0.00,,---,0.00,VWS V14.00,2013-02-15 02:05:00,
2013-02-14 21:07:00,33.6,31.0,29.84,NW,319,3.0,14.0,90,0.00,,---,0.00,VWS V14.00,2013-02-15 02:07:00,
2013-02-14 21:08:00,33.5,30.9,29.84,NW,317,4.0,14.0,90,0.00,,---,0.00,VWS V14.00,2013-02-15 02:08:00,
2013-02-14 21:10:00,33.5,30.9,29.84,NW,324,9.0,14.0,90,0.00,,---,0.00,VWS V14.00,2013-02-15 02:10:00,
2013-02-14 21:11:00,33.4,30.8,29.84,NW,306,9.0,14.0,90,0.00,,---,0.00,VWS V14.00,2013-02-15 02:11:00,
2013-02-14 21:13:00,33.4,31.1,29.84,NNW,331,5.0,14.0,91,0.00,,---,0.00,VWS V14.00,2013-02-15 02:13:00,
2013-02-14 21:15:00,33.3,31.0,29.84,NW,319,5.0,14.0,91,0.00,,---,0.00,VWS V14.00,2013-02-15 02:15:00,
2013-02-14 21:16:00,33.3,31.0,29.84,NW,323,4.0,14.0,91,0.00,,---,0.00,VWS V14.00,2013-02-15 02:16:00,
2013-02-14 21:18:00,33.3,31.0,29.84,NW,314,5.0,14.0,91,0.00,,---,0.00,VWS V14.00,2013-02-15 02:18:00,
2013-02-14 21:20:00,33.3,31.0,29.84,NW,309,6.0,14.0,91,0.00,,---,0.00,VWS V14.00,2013-02-15 02:20:00,
2013-02-14 21:21:00,33.3,31.0,29.84,WNW,303,6.0,14.0,91,0.00,,---,0.00,VWS V14.00,2013-02-15 02:21:00,
2013-02-14 21:24:00,33.3,31.2,29.84,WNW,287,6.0,14.0,92,0.00,,---,0.00,VWS V14.00,2013-02-15 02:24:00,
2013-02-14 21:25:00,33.3,31.2,29.84,WNW,297,2.0,14.0,92,0.00,,---,0.00,VWS V14.00,2013-02-15 02:25:00,
2013-02-14 21:27:00,33.3,31.2,29.84,WNW,288,6.0,14.0,92,0.00,,---,0.00,VWS V14.00,2013-02-15 02:27:00,
2013-02-14 21:30:00,33.4,31.3,29.84,NW,314,5.0,9.0,92,0.00,,---,0.00,VWS V14.00,2013-02-15 02:30:00,
2013-02-14 21:31:00,33.3,31.2,29.85,NW,314,4.0,9.0,92,0.00,,---,0.00,VWS V14.00,2013-02-15 02:31:00,
2013-02-14 21:32:00,33.3,31.2,29.84,WNW,300,8.0,11.0,92,0.00,,---,0.00,VWS V14.00,2013-02-15 02:32:00,
2013-02-14 21:33:00,33.4,31.3,29.84,NW,306,12.0,17.0,92,0.00,,---,0.00,VWS V14.00,2013-02-15 02:33:00,
2013-02-14 21:36:00,33.3,31.2,29.85,WNW,290,7.0,17.0,92,0.00,,---,0.00,VWS V14.00,2013-02-15 02:36:00,
2013-02-14 21:38:00,33.3,31.2,29.85,NW,317,10.0,17.0,92,0.00,,---,0.00,VWS V14.00,2013-02-15 02:38:00,
2013-02-14 21:41:00,33.4,31.3,29.85,WNW,293,5.0,17.0,92,0.00,,---,0.00,VWS V14.00,2013-02-15 02:41:00,
2013-02-14 21:43:00,33.4,31.3,29.85,NW,305,5.0,17.0,92,0.00,,---,0.00,VWS V14.00,2013-02-15 02:43:00,
2013-02-14 21:44:00,33.4,31.3,29.85,NW,306,16.0,17.0,92,0.00,,---,0.00,VWS V14.00,2013-02-15 02:44:00,
2013-02-14 21:46:00,33.4,31.3,29.85,NNW,327,12.0,17.0,92,0.00,,---,0.00,VWS V14.00,2013-02-15 02:46:00,
2013-02-14 21:48:00,33.4,31.3,29.85,NW,321,5.0,17.0,92,0.00,,---,0.00,VWS V14.00,2013-02-15 02:48:00,
2013-02-14 21:49:00,33.3,31.2,29.85,WNW,286,8.0,17.0,92,0.00,,---,0.00,VWS V14.00,2013-02-15 02:49:00,
2013-02-14 21:52:00,33.4,31.3,29.85,WNW,288,10.0,17.0,92,0.00,,---,0.00,VWS V14.00,2013-02-15 02:52:00,
2013-02-14 21:54:00,33.4,31.3,29.85,West,269,12.0,17.0,92,0.00,,---,0.00,VWS V14.00,2013-02-15 02:54:00,
2013-02-14 21:55:00,33.4,31.3,29.85,WNW,290,8.0,17.0,92,0.00,,---,0.00,VWS V14.00,2013-02-15 02:55:00,
2013-02-14 21:57:00,33.5,31.4,29.85,NW,317,10.0,17.0,92,0.00,,---,0.00,VWS V14.00,2013-02-15 02:57:00,
2013-02-14 21:58:00,33.5,31.4,29.85,WNW,300,15.0,17.0,92,0.00,,---,0.00,VWS V14.00,2013-02-15 02:58:00,
2013-02-14 21:59:00,33.5,31.4,29.85,WNW,295,10.0,14.0,92,0.00,,---,0.00,VWS V14.00,2013-02-15 02:59:00,
2013-02-14 22:00:00,33.5,31.4,29.85,WNW,287,9.0,14.0,92,0.00,,---,0.00,VWS V14.00,2013-02-15 03:00:00,
2013-02-14 22:02:00,33.6,31.5,29.85,WNW,295,11.0,14.0,92,0.00,,---,0.00,VWS V14.00,2013-02-15 03:02:00,
2013-02-14 22:03:00,33.6,31.5,29.85,WNW,287,6.0,14.0,92,0.00,,---,0.00,VWS V14.00,2013-02-15 03:03:00,
2013-02-14 22:05:00,33.6,31.5,29.85,WNW,292,6.0,14.0,92,0.00,,---,0.00,VWS V14.00,2013-02-15 03:05:00,
2013-02-14 22:09:00,33.7,31.6,29.85,WNW,290,3.0,16.0,92,0.00,,---,0.00,VWS V14.00,2013-02-15 03:09:00,
2013-02-14 22:10:00,33.7,31.6,29.85,WNW,292,5.0,16.0,92,0.00,,---,0.00,VWS V14.00,2013-02-15 03:10:00,
2013-02-14 22:12:00,33.7,31.6,29.86,WNW,299,5.0,16.0,92,0.00,,---,0.00,VWS V14.00,2013-02-15 03:12:00,
2013-02-14 22:14:00,33.7,31.6,29.86,West,277,9.0,16.0,92,0.00,,---,0.00,VWS V14.00,2013-02-15 03:14:00,
2013-02-14 22:15:00,33.7,31.6,29.86,West,275,3.0,16.0,92,0.00,,---,0.00,VWS V14.00,2013-02-15 03:15:00,
2013-02-14 22:16:00,33.7,31.6,29.86,West,263,6.0,16.0,92,0.00,,---,0.00,VWS V14.00,2013-02-15 03:16:00,
2013-02-14 22:18:00,33.7,31.6,29.86,NW,313,3.0,16.0,92,0.00,,---,0.00,VWS V14.00,2013-02-15 03:18:00,
2013-02-14 22:20:00,33.7,31.6,29.86,WNW,286,5.0,16.0,92,0.00,,---,0.00,VWS V14.00,2013-02-15 03:20:00,
2013-02-14 22:24:00,33.6,31.3,29.86,NW,307,6.0,16.0,91,0.00,,---,0.00,VWS V14.00,2013-02-15 03:24:00,
2013-02-14 22:26:00,33.6,31.3,29.86,WNW,300,9.0,16.0,91,0.00,,---,0.00,VWS V14.00,2013-02-15 03:26:00,
2013-02-14 22:27:00,33.6,31.3,29.86,WNW,299,5.0,16.0,91,0.00,,---,0.00,VWS V14.00,2013-02-15 03:27:00,
2013-02-14 22:29:00,33.6,31.3,29.86,WNW,296,11.0,18.0,91,0.00,,---,0.00,VWS V14.00,2013-02-15 03:29:00,
2013-02-14 22:31:00,33.6,31.3,29.86,NW,304,7.0,18.0,91,0.00,,---,0.00,VWS V14.00,2013-02-15 03:31:00,
2013-02-14 22:32:00,33.6,31.3,29.86,WNW,301,4.0,18.0,91,0.00,,---,0.00,VWS V14.00,2013-02-15 03:32:00,
2013-02-14 22:34:00,33.6,31.3,29.86,NW,304,6.0,18.0,91,0.00,,---,0.00,VWS V14.00,2013-02-15 03:34:00,
2013-02-14 22:36:00,33.6,31.3,29.86,NW,306,10.0,18.0,91,0.00,,---,0.00,VWS V14.00,2013-02-15 03:36:00,
2013-02-14 22:37:00,33.6,31.3,29.86,WNW,292,4.0,18.0,91,0.00,,---,0.00,VWS V14.00,2013-02-15 03:37:00,
2013-02-14 22:39:00,33.6,31.3,29.86,NW,317,9.0,18.0,91,0.00,,---,0.00,VWS V14.00,2013-02-15 03:39:00,
2013-02-14 22:42:00,33.6,31.3,29.86,West,275,7.0,18.0,91,0.00,,---,0.00,VWS V14.00,2013-02-15 03:42:00,
2013-02-14 22:43:00,33.6,31.3,29.86,WNW,302,9.0,18.0,91,0.00,,---,0.00,VWS V14.00,2013-02-15 03:43:00,
2013-02-14 22:44:00,33.6,31.3,29.86,NW,304,6.0,18.0,91,0.00,,---,0.00,VWS V14.00,2013-02-15 03:44:00,
2013-02-14 22:47:00,33.6,31.3,29.86,West,278,5.0,18.0,91,0.00,,---,0.00,VWS V14.00,2013-02-15 03:47:00,
2013-02-14 22:49:00,33.6,31.3,29.86,NNW,333,6.0,18.0,91,0.00,,---,0.00,VWS V14.00,2013-02-15 03:49:00,
2013-02-14 22:50:00,33.6,31.3,29.86,West,276,7.0,18.0,91,0.00,,---,0.00,VWS V14.00,2013-02-15 03:50:00,
2013-02-14 22:52:00,33.6,31.3,29.86,NW,304,4.0,18.0,91,0.00,,---,0.00,VWS V14.00,2013-02-15 03:52:00,
2013-02-14 22:55:00,33.6,31.3,29.86,NW,309,9.0,18.0,91,0.00,,---,0.00,VWS V14.00,2013-02-15 03:55:00,
2013-02-14 22:57:00,33.5,31.2,29.86,WNW,296,13.0,18.0,91,0.00,,---,0.00,VWS V14.00,2013-02-15 03:57:00,
2013-02-14 22:58:00,33.5,31.2,29.86,West,274,10.0,18.0,91,0.00,,---,0.00,VWS V14.00,2013-02-15 03:58:00,
2013-02-14 23:00:00,33.5,31.2,29.87,WNW,290,5.0,11.0,91,0.00,,---,0.00,VWS V14.00,2013-02-15 04:00:00,
2013-02-14 23:02:00,33.6,31.3,29.87,West,267,13.0,13.0,91,0.00,,---,0.00,VWS V14.00,2013-02-15 04:02:00,
2013-02-14 23:04:00,33.5,31.2,29.87,NW,305,5.0,13.0,91,0.00,,---,0.00,VWS V14.00,2013-02-15 04:04:00,
2013-02-14 23:05:00,33.5,31.2,29.87,WNW,300,13.0,14.0,91,0.00,,---,0.00,VWS V14.00,2013-02-15 04:05:00,
2013-02-14 23:06:00,33.4,31.1,29.87,WNW,303,5.0,14.0,91,0.00,,---,0.00,VWS V14.00,2013-02-15 04:06:00,
2013-02-14 23:08:00,33.4,31.1,29.87,WNW,303,3.0,14.0,91,0.00,,---,0.00,VWS V14.00,2013-02-15 04:08:00,
2013-02-14 23:09:00,33.4,31.1,29.87,WNW,291,3.0,14.0,91,0.00,,---,0.00,VWS V14.00,2013-02-15 04:09:00,
2013-02-14 23:11:00,33.3,31.0,29.87,NW,324,12.0,14.0,91,0.00,,---,0.00,VWS V14.00,2013-02-15 04:11:00,
2013-02-14 23:15:00,33.1,30.8,29.87,NW,321,3.0,14.0,91,0.00,,---,0.00,VWS V14.00,2013-02-15 04:15:00,
2013-02-14 23:16:00,33.0,30.7,29.87,North,349,4.0,14.0,91,0.00,,---,0.00,VWS V14.00,2013-02-15 04:16:00,
2013-02-14 23:17:00,32.9,30.6,29.87,NNW,346,3.0,14.0,91,0.00,,---,0.00,VWS V14.00,2013-02-15 04:17:00,
2013-02-14 23:18:00,32.9,30.6,29.87,NNW,346,2.0,14.0,91,0.00,,---,0.00,VWS V14.00,2013-02-15 04:18:00,
2013-02-14 23:22:00,32.9,30.8,29.87,NW,326,5.0,14.0,92,0.00,,---,0.00,VWS V14.00,2013-02-15 04:22:00,
2013-02-14 23:23:00,32.8,30.7,29.87,NW,326,3.0,14.0,92,0.00,,---,0.00,VWS V14.00,2013-02-15 04:23:00,
2013-02-14 23:24:00,32.8,30.7,29.87,NNW,329,6.0,14.0,92,0.00,,---,0.00,VWS V14.00,2013-02-15 04:24:00,
2013-02-14 23:27:00,32.7,30.6,29.87,NNW,329,5.0,14.0,92,0.00,,---,0.00,VWS V14.00,2013-02-15 04:27:00,
2013-02-14 23:28:00,32.7,30.6,29.87,NNW,329,3.0,3.0,92,0.00,,---,0.00,VWS V14.00,2013-02-15 04:28:00,
2013-02-14 23:30:00,32.7,30.6,29.87,NW,322,3.0,9.0,92,0.00,,---,0.00,VWS V14.00,2013-02-15 04:30:00,
2013-02-14 23:34:00,32.7,30.6,29.87,NW,321,3.0,9.0,92,0.00,,---,0.00,VWS V14.00,2013-02-15 04:34:00,
2013-02-14 23:35:00,32.7,30.6,29.87,NW,321,2.0,9.0,92,0.00,,---,0.00,VWS V14.00,2013-02-15 04:35:00,
2013-02-14 23:36:00,32.8,30.7,29.87,NW,321,2.0,9.0,92,0.00,,---,0.00,VWS V14.00,2013-02-15 04:36:00,
2013-02-14 23:39:00,32.8,30.7,29.87,NW,321,4.0,9.0,92,0.00,,---,0.00,VWS V14.00,2013-02-15 04:39:00,
2013-02-14 23:40:00,32.8,30.7,29.87,NNW,327,5.0,9.0,92,0.00,,---,0.00,VWS V14.00,2013-02-15 04:40:00,
2013-02-14 23:41:00,32.8,30.7,29.87,North,5,4.0,9.0,92,0.00,,---,0.00,VWS V14.00,2013-02-15 04:41:00,
2013-02-14 23:42:00,32.8,30.7,29.88,NNE,15,11.0,11.0,92,0.00,,---,0.00,VWS V14.00,2013-02-15 04:42:00,
2013-02-14 23:44:00,32.8,31.0,29.88,North,355,6.0,11.0,93,0.00,,---,0.00,VWS V14.00,2013-02-15 04:44:00,
2013-02-14 23:46:00,32.4,30.6,29.87,NNW,341,5.0,12.0,93,0.00,,---,0.00,VWS V14.00,2013-02-15 04:46:00,
2013-02-14 23:47:00,32.3,30.5,29.88,NNE,15,9.0,12.0,93,0.00,,---,0.00,VWS V14.00,2013-02-15 04:47:00,
2013-02-14 23:49:00,32.1,30.0,29.88,North,11,10.0,13.0,92,0.00,,---,0.00,VWS V14.00,2013-02-15 04:49:00,
2013-02-14 23:52:00,31.9,30.1,29.88,NNW,346,6.0,13.0,93,0.00,,---,0.00,VWS V14.00,2013-02-15 04:52:00,
2013-02-14 23:55:00,31.7,29.6,29.88,North,349,7.0,13.0,92,0.00,,---,0.00,VWS V14.00,2013-02-15 04:55:00,
2013-02-14 23:57:00,31.5,29.7,29.88,North,355,4.0,13.0,93,0.00,,---,0.00,VWS V14.00,2013-02-15 04:57:00,
2013-02-14 23:59:00,31.5,29.7,29.88,NW,321,9.0,10.0,93,0.00,,---,0.00,VWS V14.00,2013-02-15 04:59:00,